Time,TemperatureF,DewpointF,PressureIn,WindDirection,WindDirectionDegrees,WindSpeedMPH,WindSpeedGustMPH,Humidity,HourlyPrecipIn,Conditions,Clouds,dailyrainin,SoftwareType,DateUTC
2013-11-27 00:01:00,49.8,49.8,29.85,SSE,161,6.0,7.0,100,0.10,,---,0.00,VWS V14.01,2013-11-27 05:01:00,
2013-11-27 00:02:00,49.8,49.8,29.85,ESE,114,3.0,7.0,100,0.10,,---,0.00,VWS V14.01,2013-11-27 05:02:00,
2013-11-27 00:06:00,49.9,49.9,29.85,East,99,5.0,11.0,100,0.11,,---,0.01,VWS V14.01,2013-11-27 05:06:00,
2013-11-27 00:07:00,50.1,50.1,29.85,SE,138,6.0,11.0,100,0.12,,---,0.02,VWS V14.01,2013-11-27 05:07:00,
2013-11-27 00:11:00,50.4,50.4,29.85,East,99,4.0,12.0,100,0.12,,---,0.02,VWS V14.01,2013-11-27 05:11:00,
2013-11-27 00:12:00,50.5,50.5,29.85,ESE,110,1.0,12.0,100,0.12,,---,0.02,VWS V14.01,2013-11-27 05:12:00,
2013-11-27 00:16:00,50.7,50.7,29.84,SE,137,5.0,9.0,100,0.11,,---,0.03,VWS V14.01,2013-11-27 05:16:00,
2013-11-27 00:17:00,50.7,50.7,29.84,SSE,161,0.0,9.0,100,0.11,,---,0.03,VWS V14.01,2013-11-27 05:17:00,
2013-11-27 00:21:00,50.7,50.7,29.84,East,79,3.0,9.0,100,0.12,,---,0.04,VWS V14.01,2013-11-27 05:21:00,
2013-11-27 00:22:00,50.7,50.7,29.84,SE,127,5.0,9.0,100,0.12,,---,0.04,VWS V14.01,2013-11-27 05:22:00,
2013-11-27 00:26:00,51.0,51.0,29.84,ESE,114,0.0,9.0,100,0.13,,---,0.05,VWS V14.01,2013-11-27 05:26:00,
2013-11-27 00:27:00,51.0,51.0,29.84,SE,127,7.0,9.0,100,0.13,,---,0.05,VWS V14.01,2013-11-27 05:27:00,
2013-11-27 00:28:00,51.0,51.0,29.84,ENE,75,5.0,9.0,100,0.13,,---,0.05,VWS V14.01,2013-11-27 05:28:00,
2013-11-27 00:31:00,51.0,51.0,29.81,East,93,6.0,6.0,100,0.12,,---,0.06,VWS V14.01,2013-11-27 05:31:00,
2013-11-27 00:32:00,51.0,51.0,29.81,SSE,165,2.0,6.0,100,0.12,,---,0.06,VWS V14.01,2013-11-27 05:32:00,
2013-11-27 00:33:00,51.0,51.0,29.81,ESE,104,3.0,6.0,100,0.12,,---,0.06,VWS V14.01,2013-11-27 05:33:00,
2013-11-27 00:37:00,51.1,51.1,29.81,SE,133,0.0,7.0,100,0.13,,---,0.07,VWS V14.01,2013-11-27 05:37:00,
2013-11-27 00:38:00,51.1,51.1,29.81,SSW,205,2.0,7.0,100,0.13,,---,0.07,VWS V14.01,2013-11-27 05:38:00,
2013-11-27 00:42:00,51.1,51.1,29.81,SE,143,5.0,8.0,100,0.14,,---,0.08,VWS V14.01,2013-11-27 05:42:00,
2013-11-27 00:43:00,51.3,51.3,29.81,SSE,147,3.0,8.0,100,0.14,,---,0.08,VWS V14.01,2013-11-27 05:43:00,
2013-11-27 00:47:00,51.4,51.4,29.79,SSE,152,4.0,8.0,100,0.12,,---,0.08,VWS V14.01,2013-11-27 05:47:00,
2013-11-27 00:48:00,51.4,51.4,29.79,SSE,158,6.0,8.0,100,0.12,,---,0.08,VWS V14.01,2013-11-27 05:48:00,
2013-11-27 00:49:00,51.4,51.4,29.79,South,178,6.0,10.0,100,0.13,,---,0.09,VWS V14.01,2013-11-27 05:49:00,
2013-11-27 00:52:00,51.6,51.6,29.79,SE,128,0.0,10.0,100,0.13,,---,0.09,VWS V14.01,2013-11-27 05:52:00,
2013-11-27 00:53:00,51.6,51.6,29.79,SE,133,4.0,10.0,100,0.13,,---,0.09,VWS V14.01,2013-11-27 05:53:00,
2013-11-27 00:54:00,51.6,51.6,29.79,ENE,62,3.0,10.0,100,0.13,,---,0.09,VWS V14.01,2013-11-27 05:54:00,
2013-11-27 00:57:00,51.7,51.7,29.79,SE,136,3.0,11.0,100,0.14,,---,0.10,VWS V14.01,2013-11-27 05:57:00,
2013-11-27 00:58:00,51.7,51.7,29.79,East,80,4.0,11.0,100,0.14,,---,0.10,VWS V14.01,2013-11-27 05:58:00,
2013-11-27 00:59:00,51.7,51.7,29.77,ESE,102,9.0,11.0,100,0.14,,---,0.10,VWS V14.01,2013-11-27 05:59:00,
2013-11-27 01:00:00,51.9,51.9,29.77,SSE,155,2.0,6.0,100,0.10,,---,0.10,VWS V14.01,2013-11-27 06:00:00,
2013-11-27 01:02:00,52.0,52.0,29.77,ESE,119,5.0,10.0,100,0.10,,---,0.10,VWS V14.01,2013-11-27 06:02:00,
2013-11-27 01:03:00,52.0,52.0,29.77,ESE,107,0.0,10.0,100,0.10,,---,0.10,VWS V14.01,2013-11-27 06:03:00,
2013-11-27 01:04:00,52.0,52.0,29.77,East,99,4.0,10.0,100,0.10,,---,0.10,VWS V14.01,2013-11-27 06:04:00,
2013-11-27 01:05:00,52.0,52.0,29.77,SSE,152,0.0,10.0,100,0.10,,---,0.10,VWS V14.01,2013-11-27 06:05:00,
2013-11-27 01:07:00,52.2,52.2,29.77,East,100,9.0,10.0,100,0.10,,---,0.10,VWS V14.01,2013-11-27 06:07:00,
2013-11-27 01:08:00,52.2,52.2,29.77,East,96,1.0,10.0,100,0.10,,---,0.10,VWS V14.01,2013-11-27 06:08:00,
2013-11-27 01:09:00,52.2,52.2,29.77,ESE,110,0.0,10.0,100,0.11,,---,0.11,VWS V14.01,2013-11-27 06:09:00,
2013-11-27 01:10:00,52.2,52.2,29.77,ESE,121,0.0,10.0,100,0.11,,---,0.11,VWS V14.01,2013-11-27 06:10:00,
2013-11-27 01:12:00,52.3,52.3,29.77,South,172,3.0,10.0,100,0.11,,---,0.11,VWS V14.01,2013-11-27 06:12:00,
2013-11-27 01:13:00,52.3,52.3,29.77,East,80,5.0,10.0,100,0.12,,---,0.12,VWS V14.01,2013-11-27 06:13:00,
2013-11-27 01:14:00,52.3,52.3,29.76,SE,134,7.0,10.0,100,0.12,,---,0.12,VWS V14.01,2013-11-27 06:14:00,
2013-11-27 01:15:00,52.3,52.3,29.76,SSE,158,1.0,1.0,100,0.09,,---,0.12,VWS V14.01,2013-11-27 06:15:00,
2013-11-27 01:17:00,52.3,52.3,29.76,ESE,106,10.0,10.0,100,0.10,,---,0.13,VWS V14.01,2013-11-27 06:17:00,
2013-11-27 01:18:00,52.5,52.5,29.76,SSE,148,3.0,10.0,100,0.11,,---,0.14,VWS V14.01,2013-11-27 06:18:00,
2013-11-27 01:19:00,52.5,52.5,29.76,South,169,1.0,10.0,100,0.11,,---,0.14,VWS V14.01,2013-11-27 06:19:00,
2013-11-27 01:20:00,52.5,52.5,29.76,SSE,150,2.0,10.0,100,0.11,,---,0.14,VWS V14.01,2013-11-27 06:20:00,
2013-11-27 01:21:00,52.5,52.5,29.76,SE,141,2.0,10.0,100,0.11,,---,0.14,VWS V14.01,2013-11-27 06:21:00,
2013-11-27 01:22:00,52.5,52.5,29.76,ESE,110,0.0,10.0,100,0.12,,---,0.15,VWS V14.01,2013-11-27 06:22:00,
2013-11-27 01:23:00,52.6,52.6,29.76,SSE,164,2.0,10.0,100,0.12,,---,0.15,VWS V14.01,2013-11-27 06:23:00,
2013-11-27 01:24:00,52.6,52.6,29.76,SE,143,5.0,10.0,100,0.12,,---,0.15,VWS V14.01,2013-11-27 06:24:00,
2013-11-27 01:25:00,52.6,52.6,29.76,East,100,2.0,10.0,100,0.13,,---,0.16,VWS V14.01,2013-11-27 06:25:00,
2013-11-27 01:26:00,52.6,52.6,29.76,ESE,104,7.0,10.0,100,0.13,,---,0.16,VWS V14.01,2013-11-27 06:26:00,
2013-11-27 01:27:00,52.8,52.8,29.76,SE,128,5.0,12.0,100,0.13,,---,0.16,VWS V14.01,2013-11-27 06:27:00,
2013-11-27 01:29:00,52.8,52.8,29.73,SSW,206,1.0,12.0,100,0.14,,---,0.17,VWS V14.01,2013-11-27 06:29:00,
2013-11-27 01:31:00,52.9,52.9,29.73,ESE,113,0.0,6.0,100,0.11,,---,0.17,VWS V14.01,2013-11-27 06:31:00,
2013-11-27 01:32:00,52.9,52.9,29.73,ESE,117,7.0,7.0,100,0.12,,---,0.18,VWS V14.01,2013-11-27 06:32:00,
2013-11-27 01:34:00,52.9,52.9,29.73,ESE,113,7.0,7.0,100,0.12,,---,0.18,VWS V14.01,2013-11-27 06:34:00,
2013-11-27 01:36:00,53.1,53.1,29.73,SSE,154,1.0,7.0,100,0.13,,---,0.19,VWS V14.01,2013-11-27 06:36:00,
2013-11-27 01:37:00,53.1,53.1,29.73,SSE,165,7.0,7.0,100,0.13,,---,0.19,VWS V14.01,2013-11-27 06:37:00,
2013-11-27 01:39:00,53.2,53.2,29.73,ESE,123,0.0,11.0,100,0.14,,---,0.20,VWS V14.01,2013-11-27 06:39:00,
2013-11-27 01:40:00,53.2,53.2,29.73,SE,130,7.0,11.0,100,0.14,,---,0.20,VWS V14.01,2013-11-27 06:40:00,
2013-11-27 01:41:00,53.2,53.2,29.73,South,181,7.0,11.0,100,0.14,,---,0.20,VWS V14.01,2013-11-27 06:41:00,
2013-11-27 01:42:00,53.2,53.2,29.73,SSE,164,5.0,11.0,100,0.14,,---,0.20,VWS V14.01,2013-11-27 06:42:00,
2013-11-27 01:44:00,53.3,53.3,29.71,South,174,4.0,11.0,100,0.15,,---,0.21,VWS V14.01,2013-11-27 06:44:00,
2013-11-27 01:45:00,53.3,53.3,29.71,SSE,167,4.0,5.0,100,0.13,,---,0.21,VWS V14.01,2013-11-27 06:45:00,
2013-11-27 01:46:00,53.3,53.3,29.71,SE,130,5.0,8.0,100,0.13,,---,0.21,VWS V14.01,2013-11-27 06:46:00,
2013-11-27 01:47:00,53.3,53.3,29.71,East,80,7.0,8.0,100,0.14,,---,0.22,VWS V14.01,2013-11-27 06:47:00,
2013-11-27 01:49:00,53.3,53.3,29.71,ESE,110,3.0,8.0,100,0.14,,---,0.22,VWS V14.01,2013-11-27 06:49:00,
2013-11-27 01:50:00,53.3,53.3,29.71,East,99,6.0,8.0,100,0.14,,---,0.22,VWS V14.01,2013-11-27 06:50:00,
2013-11-27 01:52:00,53.3,53.3,29.71,South,189,2.0,8.0,100,0.15,,---,0.23,VWS V14.01,2013-11-27 06:52:00,
2013-11-27 01:54:00,53.3,53.3,29.71,SSW,209,1.0,13.0,100,0.16,,---,0.24,VWS V14.01,2013-11-27 06:54:00,
2013-11-27 01:55:00,53.3,53.3,29.71,SE,134,2.0,13.0,100,0.16,,---,0.24,VWS V14.01,2013-11-27 06:55:00,
2013-11-27 01:57:00,53.3,53.3,29.71,SE,134,3.0,13.0,100,0.16,,---,0.24,VWS V14.01,2013-11-27 06:57:00,
2013-11-27 02:00:00,53.3,53.3,29.69,SE,143,5.0,6.0,100,0.15,,---,0.25,VWS V14.01,2013-11-27 07:00:00,
2013-11-27 02:02:00,53.3,53.3,29.69,SE,124,6.0,7.0,100,0.15,,---,0.25,VWS V14.01,2013-11-27 07:02:00,
2013-11-27 02:05:00,53.3,53.3,29.69,ESE,121,2.0,8.0,100,0.16,,---,0.26,VWS V14.01,2013-11-27 07:05:00,
2013-11-27 02:06:00,53.3,53.3,29.69,East,85,8.0,8.0,100,0.16,,---,0.26,VWS V14.01,2013-11-27 07:06:00,
2013-11-27 02:07:00,53.2,53.2,29.69,ENE,69,2.0,8.0,100,0.16,,---,0.26,VWS V14.01,2013-11-27 07:07:00,
2013-11-27 02:08:00,53.2,53.2,29.69,NE,42,5.0,8.0,100,0.16,,---,0.26,VWS V14.01,2013-11-27 07:08:00,
2013-11-27 02:10:00,53.2,53.2,29.69,ESE,116,4.0,8.0,100,0.17,,---,0.27,VWS V14.01,2013-11-27 07:10:00,
2013-11-27 02:11:00,53.2,53.2,29.69,SE,131,8.0,8.0,100,0.17,,---,0.27,VWS V14.01,2013-11-27 07:11:00,
2013-11-27 02:12:00,53.2,53.2,29.69,South,184,1.0,11.0,100,0.18,,---,0.28,VWS V14.01,2013-11-27 07:12:00,
2013-11-27 02:13:00,53.2,53.2,29.69,SE,133,5.0,11.0,100,0.18,,---,0.28,VWS V14.01,2013-11-27 07:13:00,
2013-11-27 02:15:00,53.2,53.2,29.67,East,96,0.0,10.0,100,0.17,,---,0.29,VWS V14.01,2013-11-27 07:15:00,
2013-11-27 02:16:00,53.2,53.2,29.67,ESE,121,3.0,10.0,100,0.17,,---,0.29,VWS V14.01,2013-11-27 07:16:00,
2013-11-27 02:17:00,53.2,53.2,29.67,ENE,78,8.0,10.0,100,0.18,,---,0.30,VWS V14.01,2013-11-27 07:17:00,
2013-11-27 02:18:00,53.2,53.2,29.67,East,88,7.0,10.0,100,0.18,,---,0.30,VWS V14.01,2013-11-27 07:18:00,
2013-11-27 02:19:00,53.2,53.2,29.67,East,93,10.0,10.0,100,0.18,,---,0.30,VWS V14.01,2013-11-27 07:19:00,
2013-11-27 02:21:00,53.2,53.2,29.67,ESE,103,6.0,11.0,100,0.19,,---,0.31,VWS V14.01,2013-11-27 07:21:00,
2013-11-27 02:22:00,53.2,53.2,29.67,SE,127,4.0,11.0,100,0.19,,---,0.31,VWS V14.01,2013-11-27 07:22:00,
2013-11-27 02:23:00,53.3,53.3,29.67,ESE,123,5.0,11.0,100,0.19,,---,0.31,VWS V14.01,2013-11-27 07:23:00,
2013-11-27 02:24:00,53.3,53.3,29.67,ESE,114,2.0,11.0,100,0.19,,---,0.31,VWS V14.01,2013-11-27 07:24:00,
2013-11-27 02:26:00,53.3,53.3,29.67,ENE,62,8.0,11.0,100,0.20,,---,0.32,VWS V14.01,2013-11-27 07:26:00,
2013-11-27 02:27:00,53.3,53.3,29.67,SE,144,8.0,11.0,100,0.20,,---,0.32,VWS V14.01,2013-11-27 07:27:00,
2013-11-27 02:28:00,53.3,53.3,29.67,South,186,3.0,11.0,100,0.20,,---,0.32,VWS V14.01,2013-11-27 07:28:00,
2013-11-27 02:29:00,53.3,53.3,29.65,SSE,164,7.0,11.0,100,0.20,,---,0.32,VWS V14.01,2013-11-27 07:29:00,
2013-11-27 02:31:00,53.3,53.3,29.65,South,191,9.0,14.0,100,0.16,,---,0.33,VWS V14.01,2013-11-27 07:31:00,
2013-11-27 02:32:00,53.5,53.5,29.65,ESE,106,8.0,14.0,100,0.16,,---,0.33,VWS V14.01,2013-11-27 07:32:00,
2013-11-27 02:33:00,53.5,53.5,29.65,ESE,107,7.0,14.0,100,0.16,,---,0.33,VWS V14.01,2013-11-27 07:33:00,
2013-11-27 02:34:00,53.5,53.5,29.65,SSE,152,1.0,14.0,100,0.16,,---,0.33,VWS V14.01,2013-11-27 07:34:00,
2013-11-27 02:36:00,53.5,53.5,29.65,East,83,7.0,14.0,100,0.16,,---,0.33,VWS V14.01,2013-11-27 07:36:00,
2013-11-27 02:37:00,53.5,53.5,29.65,SE,136,0.0,14.0,100,0.17,,---,0.34,VWS V14.01,2013-11-27 07:37:00,
2013-11-27 02:38:00,53.5,53.5,29.65,South,174,3.0,14.0,100,0.17,,---,0.34,VWS V14.01,2013-11-27 07:38:00,
2013-11-27 02:39:00,53.5,53.5,29.65,SSE,160,5.0,14.0,100,0.18,,---,0.35,VWS V14.01,2013-11-27 07:39:00,
2013-11-27 02:41:00,53.6,53.6,29.65,ESE,109,9.0,14.0,100,0.18,,---,0.36,VWS V14.01,2013-11-27 07:41:00,
2013-11-27 02:42:00,53.6,53.6,29.65,ESE,119,4.0,14.0,100,0.19,,---,0.36,VWS V14.01,2013-11-27 07:42:00,
2013-11-27 02:43:00,53.6,53.6,29.65,ESE,103,1.0,14.0,100,0.19,,---,0.36,VWS V14.01,2013-11-27 07:43:00,
2013-11-27 02:44:00,53.8,53.8,29.64,ESE,102,7.0,14.0,100,0.19,,---,0.36,VWS V14.01,2013-11-27 07:44:00,
2013-11-27 02:46:00,53.8,53.8,29.64,SE,137,8.0,8.0,100,0.16,,---,0.37,VWS V14.01,2013-11-27 07:46:00,
2013-11-27 02:47:00,53.9,53.9,29.64,SE,128,6.0,10.0,100,0.17,,---,0.38,VWS V14.01,2013-11-27 07:47:00,
2013-11-27 02:48:00,53.9,53.9,29.64,SE,141,3.0,10.0,100,0.17,,---,0.38,VWS V14.01,2013-11-27 07:48:00,
2013-11-27 02:49:00,53.9,53.9,29.64,East,96,11.0,14.0,100,0.18,,---,0.39,VWS V14.01,2013-11-27 07:49:00,
2013-11-27 02:51:00,53.9,53.9,29.64,SE,136,8.0,14.0,100,0.19,,---,0.40,VWS V14.01,2013-11-27 07:51:00,
2013-11-27 02:52:00,53.9,53.9,29.64,ESE,117,7.0,14.0,100,0.20,,---,0.41,VWS V14.01,2013-11-27 07:52:00,
2013-11-27 02:53:00,54.1,54.1,29.64,SSE,155,7.0,14.0,100,0.21,,---,0.42,VWS V14.01,2013-11-27 07:53:00,
2013-11-27 02:54:00,54.1,54.1,29.64,SE,127,6.0,14.0,100,0.21,,---,0.42,VWS V14.01,2013-11-27 07:54:00,
2013-11-27 02:55:00,54.1,54.1,29.64,SE,124,2.0,14.0,100,0.21,,---,0.42,VWS V14.01,2013-11-27 07:55:00,
2013-11-27 02:57:00,54.1,54.1,29.64,ESE,102,3.0,14.0,100,0.22,,---,0.43,VWS V14.01,2013-11-27 07:57:00,
2013-11-27 02:58:00,54.1,54.1,29.64,SSE,151,6.0,14.0,100,0.22,,---,0.43,VWS V14.01,2013-11-27 07:58:00,
2013-11-27 02:59:00,54.1,54.1,29.62,SE,145,4.0,14.0,100,0.22,,---,0.43,VWS V14.01,2013-11-27 07:59:00,
2013-11-27 03:00:00,54.1,54.1,29.62,ESE,107,6.0,6.0,100,0.18,,---,0.43,VWS V14.01,2013-11-27 08:00:00,
2013-11-27 03:01:00,54.1,54.1,29.62,ESE,121,6.0,6.0,100,0.18,,---,0.43,VWS V14.01,2013-11-27 08:01:00,
2013-11-27 03:02:00,54.2,54.2,29.62,ESE,114,9.0,13.0,100,0.19,,---,0.44,VWS V14.01,2013-11-27 08:02:00,
2013-11-27 03:03:00,54.2,54.2,29.62,SSE,154,12.0,13.0,100,0.19,,---,0.44,VWS V14.01,2013-11-27 08:03:00,
2013-11-27 03:04:00,54.2,54.2,29.62,SE,140,1.0,13.0,100,0.19,,---,0.44,VWS V14.01,2013-11-27 08:04:00,
2013-11-27 03:05:00,54.2,54.2,29.62,South,169,5.0,13.0,100,0.19,,---,0.44,VWS V14.01,2013-11-27 08:05:00,
2013-11-27 03:06:00,54.2,54.2,29.62,SSE,148,11.0,13.0,100,0.20,,---,0.45,VWS V14.01,2013-11-27 08:06:00,
2013-11-27 03:07:00,54.2,54.2,29.62,SE,137,7.0,13.0,100,0.20,,---,0.45,VWS V14.01,2013-11-27 08:07:00,
2013-11-27 03:08:00,54.2,54.2,29.62,SE,136,4.0,13.0,100,0.21,,---,0.46,VWS V14.01,2013-11-27 08:08:00,
2013-11-27 03:10:00,54.2,54.2,29.62,SSE,152,7.0,13.0,100,0.22,,---,0.47,VWS V14.01,2013-11-27 08:10:00,
2013-11-27 03:11:00,54.2,54.2,29.62,East,88,7.0,13.0,100,0.22,,---,0.47,VWS V14.01,2013-11-27 08:11:00,
2013-11-27 03:12:00,54.2,54.2,29.62,SE,126,10.0,13.0,100,0.23,,---,0.48,VWS V14.01,2013-11-27 08:12:00,
2013-11-27 03:13:00,54.2,54.2,29.62,WSW,241,5.0,17.0,100,0.23,,---,0.48,VWS V14.01,2013-11-27 08:13:00,
2013-11-27 03:15:00,54.4,54.4,29.59,ESE,104,7.0,7.0,100,0.21,,---,0.49,VWS V14.01,2013-11-27 08:15:00,
2013-11-27 03:17:00,54.4,54.4,29.59,SSE,157,3.0,16.0,100,0.22,,---,0.50,VWS V14.01,2013-11-27 08:17:00,
2013-11-27 03:18:00,54.4,54.4,29.59,SSE,150,2.0,16.0,100,0.23,,---,0.51,VWS V14.01,2013-11-27 08:18:00,
2013-11-27 03:20:00,54.4,54.4,29.59,SSE,148,2.0,16.0,100,0.24,,---,0.52,VWS V14.01,2013-11-27 08:20:00,
2013-11-27 03:21:00,54.4,54.4,29.59,WSW,258,4.0,16.0,100,0.25,,---,0.53,VWS V14.01,2013-11-27 08:21:00,
2013-11-27 03:22:00,54.4,54.4,29.59,South,185,10.0,16.0,100,0.25,,---,0.53,VWS V14.01,2013-11-27 08:22:00,
2013-11-27 03:23:00,54.4,54.4,29.59,East,100,3.0,16.0,100,0.26,,---,0.54,VWS V14.01,2013-11-27 08:23:00,
2013-11-27 03:24:00,54.4,54.4,29.59,SE,141,4.0,16.0,100,0.26,,---,0.54,VWS V14.01,2013-11-27 08:24:00,
2013-11-27 03:26:00,54.4,54.4,29.59,SE,144,5.0,16.0,100,0.26,,---,0.54,VWS V14.01,2013-11-27 08:26:00,
2013-11-27 03:27:00,54.5,54.5,29.59,SE,124,10.0,16.0,100,0.27,,---,0.55,VWS V14.01,2013-11-27 08:27:00,
2013-11-27 03:28:00,54.5,54.5,29.59,ESE,117,13.0,16.0,100,0.27,,---,0.55,VWS V14.01,2013-11-27 08:28:00,
2013-11-27 03:29:00,54.5,54.5,29.59,ESE,114,7.0,16.0,100,0.27,,---,0.55,VWS V14.01,2013-11-27 08:29:00,
2013-11-27 03:31:00,54.5,54.5,29.57,South,179,3.0,11.0,100,0.24,,---,0.56,VWS V14.01,2013-11-27 08:31:00,
2013-11-27 03:32:00,54.5,54.5,29.57,SSE,157,6.0,11.0,100,0.24,,---,0.56,VWS V14.01,2013-11-27 08:32:00,
2013-11-27 03:33:00,54.5,54.5,29.57,WSW,237,3.0,11.0,100,0.24,,---,0.56,VWS V14.01,2013-11-27 08:33:00,
2013-11-27 03:34:00,54.5,54.5,29.57,SSE,151,6.0,11.0,100,0.24,,---,0.56,VWS V14.01,2013-11-27 08:34:00,
2013-11-27 03:36:00,54.5,54.5,29.57,East,85,12.0,16.0,100,0.25,,---,0.57,VWS V14.01,2013-11-27 08:36:00,
2013-11-27 03:37:00,54.5,54.5,29.57,SE,145,2.0,16.0,100,0.25,,---,0.57,VWS V14.01,2013-11-27 08:37:00,
2013-11-27 03:38:00,54.7,54.7,29.57,SE,143,6.0,16.0,100,0.25,,---,0.57,VWS V14.01,2013-11-27 08:38:00,
2013-11-27 03:39:00,54.7,54.7,29.57,ESE,119,6.0,16.0,100,0.25,,---,0.57,VWS V14.01,2013-11-27 08:39:00,
2013-11-27 03:42:00,54.8,54.8,29.57,ESE,120,7.0,17.0,100,0.27,,---,0.59,VWS V14.01,2013-11-27 08:42:00,
2013-11-27 03:43:00,54.8,54.8,29.57,ESE,102,5.0,17.0,100,0.27,,---,0.59,VWS V14.01,2013-11-27 08:43:00,
2013-11-27 03:44:00,55.0,55.0,29.54,SSE,154,2.0,17.0,100,0.28,,---,0.60,VWS V14.01,2013-11-27 08:44:00,
2013-11-27 03:47:00,55.1,55.1,29.54,ESE,121,3.0,13.0,100,0.25,,---,0.62,VWS V14.01,2013-11-27 08:47:00,
2013-11-27 03:48:00,55.1,55.1,29.54,ESE,121,3.0,13.0,100,0.25,,---,0.62,VWS V14.01,2013-11-27 08:48:00,
2013-11-27 03:49:00,55.1,55.1,29.54,East,86,5.0,13.0,100,0.25,,---,0.62,VWS V14.01,2013-11-27 08:49:00,
2013-11-27 03:53:00,55.1,55.1,29.54,ESE,123,5.0,13.0,100,0.27,,---,0.64,VWS V14.01,2013-11-27 08:53:00,
2013-11-27 03:54:00,55.1,55.1,29.54,SE,126,1.0,13.0,100,0.28,,---,0.65,VWS V14.01,2013-11-27 08:54:00,
2013-11-27 03:58:00,55.3,55.3,29.54,East,86,5.0,14.0,100,0.32,,---,0.69,VWS V14.01,2013-11-27 08:58:00,
2013-11-27 03:59:00,55.3,55.3,29.52,ESE,120,5.0,14.0,100,0.33,,---,0.70,VWS V14.01,2013-11-27 08:59:00,
2013-11-27 04:03:00,55.3,55.3,29.52,SSE,147,1.0,19.0,100,0.29,,---,0.72,VWS V14.01,2013-11-27 09:03:00,
2013-11-27 04:04:00,55.3,55.3,29.52,SE,133,12.0,19.0,100,0.29,,---,0.72,VWS V14.01,2013-11-27 09:04:00,
2013-11-27 04:08:00,55.4,55.4,29.52,ESE,121,7.0,19.0,100,0.30,,---,0.73,VWS V14.01,2013-11-27 09:08:00,
2013-11-27 04:09:00,55.4,55.4,29.52,East,100,2.0,19.0,100,0.30,,---,0.73,VWS V14.01,2013-11-27 09:09:00,
2013-11-27 04:10:00,55.4,55.4,29.52,SE,140,11.0,19.0,100,0.31,,---,0.74,VWS V14.01,2013-11-27 09:10:00,
2013-11-27 04:13:00,55.4,55.4,29.52,ESE,107,3.0,19.0,100,0.32,,---,0.75,VWS V14.01,2013-11-27 09:13:00,
2013-11-27 04:14:00,55.4,55.4,29.49,SSW,208,3.0,19.0,100,0.32,,---,0.75,VWS V14.01,2013-11-27 09:14:00,
2013-11-27 04:15:00,55.4,55.4,29.49,SSE,152,5.0,5.0,100,0.26,,---,0.75,VWS V14.01,2013-11-27 09:15:00,
2013-11-27 04:19:00,55.4,55.4,29.49,SE,136,11.0,14.0,100,0.27,,---,0.76,VWS V14.01,2013-11-27 09:19:00,
2013-11-27 04:20:00,55.4,55.4,29.49,SE,133,8.0,14.0,100,0.27,,---,0.76,VWS V14.01,2013-11-27 09:20:00,
2013-11-27 04:24:00,55.6,55.6,29.49,SE,140,11.0,17.0,100,0.28,,---,0.77,VWS V14.01,2013-11-27 09:24:00,
2013-11-27 04:25:00,55.6,55.6,29.49,SE,138,11.0,17.0,100,0.28,,---,0.77,VWS V14.01,2013-11-27 09:25:00,
2013-11-27 04:29:00,55.6,55.6,29.46,SE,130,6.0,17.0,100,0.28,,---,0.77,VWS V14.01,2013-11-27 09:29:00,
2013-11-27 04:30:00,55.6,55.6,29.46,East,85,10.0,12.0,100,0.22,,---,0.77,VWS V14.01,2013-11-27 09:30:00,
2013-11-27 04:34:00,55.6,55.6,29.46,SSE,162,13.0,13.0,100,0.23,,---,0.78,VWS V14.01,2013-11-27 09:34:00,
2013-11-27 04:35:00,55.6,55.6,29.46,SE,137,11.0,13.0,100,0.23,,---,0.78,VWS V14.01,2013-11-27 09:35:00,
2013-11-27 04:39:00,55.6,55.6,29.46,SSE,148,10.0,18.0,100,0.24,,---,0.79,VWS V14.01,2013-11-27 09:39:00,
2013-11-27 04:40:00,55.6,55.6,29.46,ESE,117,6.0,18.0,100,0.24,,---,0.79,VWS V14.01,2013-11-27 09:40:00,
2013-11-27 04:44:00,55.7,55.7,29.45,South,174,5.0,22.0,100,0.25,,---,0.80,VWS V14.01,2013-11-27 09:44:00,
2013-11-27 04:45:00,55.7,55.7,29.45,SSE,160,6.0,6.0,100,0.20,,---,0.80,VWS V14.01,2013-11-27 09:45:00,
2013-11-27 04:46:00,55.7,55.7,29.45,SE,143,16.0,16.0,100,0.21,,---,0.81,VWS V14.01,2013-11-27 09:46:00,
2013-11-27 04:50:00,55.7,55.7,29.45,SE,145,9.0,17.0,100,0.22,,---,0.82,VWS V14.01,2013-11-27 09:50:00,
2013-11-27 04:51:00,55.7,55.7,29.45,SSE,154,6.0,17.0,100,0.22,,---,0.82,VWS V14.01,2013-11-27 09:51:00,
2013-11-27 04:55:00,55.9,55.9,29.45,SSE,148,11.0,19.0,100,0.23,,---,0.83,VWS V14.01,2013-11-27 09:55:00,
2013-11-27 04:56:00,55.9,55.9,29.45,SSE,155,25.0,25.0,100,0.23,,---,0.83,VWS V14.01,2013-11-27 09:56:00,
2013-11-27 05:01:00,56.0,56.0,29.44,SSE,155,3.0,7.0,100,0.14,,---,0.84,VWS V14.01,2013-11-27 10:01:00,
2013-11-27 05:06:00,56.2,56.2,29.44,SE,138,10.0,16.0,100,0.15,,---,0.85,VWS V14.01,2013-11-27 10:06:00,
2013-11-27 05:11:00,56.5,56.5,29.44,SSE,162,6.0,16.0,100,0.16,,---,0.86,VWS V14.01,2013-11-27 10:11:00,
2013-11-27 05:12:00,56.5,56.5,29.44,SSE,150,14.0,16.0,100,0.16,,---,0.86,VWS V14.01,2013-11-27 10:12:00,
2013-11-27 05:16:00,56.7,56.7,29.43,SE,124,7.0,18.0,100,0.12,,---,0.87,VWS V14.01,2013-11-27 10:16:00,
2013-11-27 05:17:00,56.9,56.9,29.43,SSE,152,11.0,22.0,100,0.12,,---,0.87,VWS V14.01,2013-11-27 10:17:00,
2013-11-27 05:21:00,56.9,56.9,29.43,SSW,208,13.0,22.0,100,0.13,,---,0.88,VWS V14.01,2013-11-27 10:21:00,
2013-11-27 05:22:00,56.9,56.9,29.43,SSE,162,13.0,22.0,100,0.13,,---,0.88,VWS V14.01,2013-11-27 10:22:00,
2013-11-27 05:26:00,57.0,57.0,29.43,East,89,6.0,22.0,100,0.13,,---,0.88,VWS V14.01,2013-11-27 10:26:00,
2013-11-27 05:27:00,57.2,57.2,29.43,South,172,18.0,22.0,100,0.13,,---,0.88,VWS V14.01,2013-11-27 10:27:00,
2013-11-27 05:31:00,57.3,57.3,29.41,SSE,168,14.0,14.0,100,0.12,,---,0.89,VWS V14.01,2013-11-27 10:31:00,
2013-11-27 05:32:00,57.3,57.3,29.41,SE,136,8.0,14.0,100,0.12,,---,0.89,VWS V14.01,2013-11-27 10:32:00,
2013-11-27 05:36:00,57.5,57.5,29.41,ESE,123,14.0,21.0,100,0.13,,---,0.90,VWS V14.01,2013-11-27 10:36:00,
2013-11-27 05:37:00,57.5,57.5,29.41,SE,134,13.0,21.0,100,0.13,,---,0.90,VWS V14.01,2013-11-27 10:37:00,
2013-11-27 05:38:00,57.6,57.6,29.41,SSE,158,14.0,21.0,100,0.13,,---,0.90,VWS V14.01,2013-11-27 10:38:00,
2013-11-27 05:41:00,57.6,57.6,29.41,SSE,151,10.0,22.0,100,0.13,,---,0.90,VWS V14.01,2013-11-27 10:41:00,
2013-11-27 05:42:00,57.6,57.6,29.41,SE,133,8.0,22.0,100,0.13,,---,0.90,VWS V14.01,2013-11-27 10:42:00,
2013-11-27 05:43:00,57.6,57.6,29.41,SSE,162,20.0,22.0,100,0.13,,---,0.90,VWS V14.01,2013-11-27 10:43:00,
2013-11-27 05:46:00,57.6,57.6,29.39,SSE,152,16.0,22.0,100,0.11,,---,0.91,VWS V14.01,2013-11-27 10:46:00,
2013-11-27 05:47:00,57.6,57.6,29.39,SE,124,11.0,22.0,100,0.11,,---,0.91,VWS V14.01,2013-11-27 10:47:00,
2013-11-27 05:48:00,57.6,57.6,29.39,SSE,147,11.0,22.0,100,0.11,,---,0.91,VWS V14.01,2013-11-27 10:48:00,
2013-11-27 05:51:00,57.6,57.6,29.39,SSE,148,8.0,22.0,100,0.12,,---,0.92,VWS V14.01,2013-11-27 10:51:00,
2013-11-27 05:52:00,57.6,57.6,29.39,SSE,148,17.0,22.0,100,0.12,,---,0.92,VWS V14.01,2013-11-27 10:52:00,
2013-11-27 05:53:00,57.6,57.6,29.39,East,80,8.0,22.0,100,0.12,,---,0.92,VWS V14.01,2013-11-27 10:53:00,
2013-11-27 05:56:00,57.8,57.8,29.39,SE,133,13.0,22.0,100,0.12,,---,0.92,VWS V14.01,2013-11-27 10:56:00,
2013-11-27 05:57:00,57.8,57.8,29.39,SSE,164,16.0,29.0,100,0.13,,---,0.93,VWS V14.01,2013-11-27 10:57:00,
2013-11-27 05:58:00,57.8,57.8,29.39,East,93,11.0,29.0,100,0.13,,---,0.93,VWS V14.01,2013-11-27 10:58:00,
2013-11-27 05:59:00,57.8,57.8,29.39,SE,141,13.0,29.0,100,0.13,,---,0.93,VWS V14.01,2013-11-27 10:59:00,
2013-11-27 06:01:00,57.8,57.8,29.39,South,185,17.0,17.0,100,0.09,,---,0.93,VWS V14.01,2013-11-27 11:01:00,
2013-11-27 06:02:00,58.0,58.0,29.39,South,179,3.0,17.0,100,0.09,,---,0.93,VWS V14.01,2013-11-27 11:02:00,
2013-11-27 06:03:00,58.0,58.0,29.39,ESE,110,18.0,18.0,100,0.09,,---,0.93,VWS V14.01,2013-11-27 11:03:00,
2013-11-27 06:04:00,58.0,58.0,29.39,SE,126,6.0,18.0,100,0.09,,---,0.93,VWS V14.01,2013-11-27 11:04:00,
2013-11-27 06:07:00,58.0,58.0,29.39,SSE,157,12.0,22.0,100,0.09,,---,0.93,VWS V14.01,2013-11-27 11:07:00,
2013-11-27 06:08:00,58.0,58.0,29.39,South,181,8.0,22.0,100,0.09,,---,0.93,VWS V14.01,2013-11-27 11:08:00,
2013-11-27 06:09:00,58.1,58.1,29.39,SE,145,16.0,22.0,100,0.09,,---,0.93,VWS V14.01,2013-11-27 11:09:00,
2013-11-27 06:12:00,58.1,58.1,29.39,SSE,152,10.0,22.0,100,0.09,,---,0.93,VWS V14.01,2013-11-27 11:12:00,
2013-11-27 06:13:00,58.1,58.1,29.39,SE,134,11.0,22.0,100,0.09,,---,0.93,VWS V14.01,2013-11-27 11:13:00,
2013-11-27 06:14:00,58.3,58.3,29.38,SSE,165,17.0,22.0,100,0.09,,---,0.93,VWS V14.01,2013-11-27 11:14:00,
2013-11-27 06:17:00,58.3,58.3,29.38,SSE,167,12.0,17.0,100,0.07,,---,0.94,VWS V14.01,2013-11-27 11:17:00,
2013-11-27 06:18:00,58.3,58.3,29.38,SSE,168,11.0,17.0,100,0.07,,---,0.94,VWS V14.01,2013-11-27 11:18:00,
2013-11-27 06:19:00,58.4,58.4,29.38,SSE,162,5.0,17.0,100,0.07,,---,0.94,VWS V14.01,2013-11-27 11:19:00,
2013-11-27 06:22:00,58.3,58.3,29.38,SW,223,22.0,26.0,100,0.07,,---,0.94,VWS V14.01,2013-11-27 11:22:00,
2013-11-27 06:23:00,58.3,58.3,29.38,SW,226,7.0,26.0,100,0.07,,---,0.94,VWS V14.01,2013-11-27 11:23:00,
2013-11-27 06:24:00,58.3,58.3,29.38,SW,222,10.0,26.0,100,0.07,,---,0.94,VWS V14.01,2013-11-27 11:24:00,
2013-11-27 06:25:00,58.3,58.3,29.38,SW,233,10.0,26.0,100,0.07,,---,0.94,VWS V14.01,2013-11-27 11:25:00,
2013-11-27 06:27:00,58.1,58.1,29.38,SW,219,10.0,26.0,100,0.08,,---,0.95,VWS V14.01,2013-11-27 11:27:00,
2013-11-27 06:28:00,58.1,58.1,29.38,SSE,147,2.0,26.0,100,0.08,,---,0.95,VWS V14.01,2013-11-27 11:28:00,
2013-11-27 06:29:00,58.1,58.1,29.36,SSE,154,6.0,26.0,100,0.08,,---,0.95,VWS V14.01,2013-11-27 11:29:00,
2013-11-27 06:30:00,58.1,58.1,29.36,SSE,167,13.0,13.0,100,0.07,,---,0.96,VWS V14.01,2013-11-27 11:30:00,
2013-11-27 06:32:00,58.1,58.1,29.36,SSW,202,10.0,16.0,100,0.07,,---,0.96,VWS V14.01,2013-11-27 11:32:00,
2013-11-27 06:33:00,58.1,58.1,29.36,East,97,8.0,20.0,100,0.07,,---,0.96,VWS V14.01,2013-11-27 11:33:00,
2013-11-27 06:34:00,58.3,58.3,29.36,SSE,157,10.0,20.0,100,0.07,,---,0.96,VWS V14.01,2013-11-27 11:34:00,
2013-11-27 06:35:00,58.4,58.4,29.36,SSE,168,20.0,20.0,100,0.07,,---,0.96,VWS V14.01,2013-11-27 11:35:00,
2013-11-27 06:36:00,58.6,58.6,29.36,SSE,161,10.0,24.0,100,0.07,,---,0.96,VWS V14.01,2013-11-27 11:36:00,
2013-11-27 06:37:00,58.6,58.6,29.36,SSE,154,10.0,24.0,100,0.07,,---,0.96,VWS V14.01,2013-11-27 11:37:00,
2013-11-27 06:38:00,58.6,58.6,29.36,South,172,8.0,24.0,100,0.07,,---,0.96,VWS V14.01,2013-11-27 11:38:00,
2013-11-27 06:39:00,58.6,58.6,29.36,SSE,150,11.0,24.0,100,0.08,,---,0.97,VWS V14.01,2013-11-27 11:39:00,
2013-11-27 06:40:00,58.6,58.6,29.36,South,184,10.0,24.0,100,0.08,,---,0.97,VWS V14.01,2013-11-27 11:40:00,
2013-11-27 06:41:00,58.4,58.4,29.36,South,184,14.0,24.0,100,0.08,,---,0.97,VWS V14.01,2013-11-27 11:41:00,
2013-11-27 06:43:00,58.4,58.4,29.36,SE,128,11.0,24.0,100,0.09,,---,0.98,VWS V14.01,2013-11-27 11:43:00,
2013-11-27 06:45:00,58.3,58.3,29.35,SSW,196,18.0,18.0,100,0.07,,---,0.98,VWS V14.01,2013-11-27 11:45:00,
2013-11-27 06:47:00,58.4,58.4,29.35,SSE,154,16.0,20.0,100,0.07,,---,0.98,VWS V14.01,2013-11-27 11:47:00,
2013-11-27 06:48:00,58.4,58.4,29.35,South,179,18.0,20.0,100,0.07,,---,0.98,VWS V14.01,2013-11-27 11:48:00,
2013-11-27 06:50:00,58.6,58.6,29.35,SSE,168,2.0,21.0,100,0.07,,---,0.98,VWS V14.01,2013-11-27 11:50:00,
2013-11-27 06:52:00,58.7,58.7,29.35,SSE,152,12.0,21.0,100,0.07,,---,0.98,VWS V14.01,2013-11-27 11:52:00,
2013-11-27 06:53:00,58.7,58.7,29.35,SE,136,10.0,21.0,100,0.07,,---,0.98,VWS V14.01,2013-11-27 11:53:00,
2013-11-27 06:55:00,58.9,58.9,29.35,SSE,151,13.0,21.0,100,0.07,,---,0.98,VWS V14.01,2013-11-27 11:55:00,
2013-11-27 06:57:00,58.9,58.9,29.35,SSE,164,6.0,21.0,100,0.07,,---,0.98,VWS V14.01,2013-11-27 11:57:00,
2013-11-27 06:58:00,58.9,58.9,29.35,SE,136,6.0,24.0,100,0.07,,---,0.98,VWS V14.01,2013-11-27 11:58:00,
2013-11-27 06:59:00,58.9,58.9,29.34,South,181,4.0,24.0,100,0.08,,---,0.99,VWS V14.01,2013-11-27 11:59:00,
2013-11-27 07:00:00,58.9,58.9,29.34,South,185,11.0,11.0,100,0.06,,---,0.99,VWS V14.01,2013-11-27 12:00:00,
2013-11-27 07:02:00,58.9,58.9,29.34,ENE,78,11.0,19.0,100,0.07,,---,1.00,VWS V14.01,2013-11-27 12:02:00,
2013-11-27 07:03:00,58.9,58.9,29.34,SSW,198,10.0,19.0,100,0.08,,---,1.01,VWS V14.01,2013-11-27 12:03:00,
2013-11-27 07:04:00,58.9,58.9,29.34,SE,144,11.0,19.0,100,0.08,,---,1.01,VWS V14.01,2013-11-27 12:04:00,
2013-11-27 07:05:00,59.0,59.0,29.34,SSE,165,19.0,19.0,100,0.09,,---,1.02,VWS V14.01,2013-11-27 12:05:00,
2013-11-27 07:06:00,59.0,59.0,29.34,SE,143,14.0,19.0,100,0.09,,---,1.02,VWS V14.01,2013-11-27 12:06:00,
2013-11-27 07:08:00,59.2,59.2,29.34,SE,145,8.0,19.0,100,0.09,,---,1.02,VWS V14.01,2013-11-27 12:08:00,
2013-11-27 07:09:00,59.2,59.2,29.34,WSW,243,11.0,19.0,100,0.09,,---,1.02,VWS V14.01,2013-11-27 12:09:00,
2013-11-27 07:10:00,59.2,59.2,29.34,SE,130,3.0,19.0,100,0.10,,---,1.03,VWS V14.01,2013-11-27 12:10:00,
2013-11-27 07:11:00,59.0,59.0,29.34,SSE,161,4.0,19.0,100,0.10,,---,1.03,VWS V14.01,2013-11-27 12:11:00,
2013-11-27 07:13:00,59.0,59.0,29.34,South,174,14.0,19.0,100,0.11,,---,1.04,VWS V14.01,2013-11-27 12:13:00,
2013-11-27 07:14:00,59.0,59.0,29.34,SSE,150,10.0,19.0,100,0.11,,---,1.04,VWS V14.01,2013-11-27 12:14:00,
2013-11-27 07:15:00,59.0,59.0,29.34,SE,134,16.0,16.0,100,0.13,,---,1.06,VWS V14.01,2013-11-27 12:15:00,
2013-11-27 07:16:00,59.0,59.0,29.34,SSE,154,7.0,16.0,100,0.13,,---,1.06,VWS V14.01,2013-11-27 12:16:00,
2013-11-27 07:18:00,58.9,58.9,29.34,South,181,9.0,17.0,100,0.16,,---,1.09,VWS V14.01,2013-11-27 12:18:00,
2013-11-27 07:19:00,58.9,58.9,29.34,SE,137,10.0,17.0,100,0.18,,---,1.11,VWS V14.01,2013-11-27 12:19:00,
2013-11-27 07:20:00,58.9,58.9,29.34,SE,144,6.0,17.0,100,0.19,,---,1.12,VWS V14.01,2013-11-27 12:20:00,
2013-11-27 07:21:00,58.9,58.9,29.34,SW,215,1.0,17.0,100,0.19,,---,1.12,VWS V14.01,2013-11-27 12:21:00,
2013-11-27 07:23:00,58.9,58.9,29.34,SSE,151,12.0,17.0,100,0.21,,---,1.14,VWS V14.01,2013-11-27 12:23:00,
2013-11-27 07:24:00,58.9,58.9,29.34,SSE,155,9.0,17.0,100,0.21,,---,1.14,VWS V14.01,2013-11-27 12:24:00,
2013-11-27 07:26:00,59.0,59.0,29.34,South,169,12.0,18.0,100,0.23,,---,1.16,VWS V14.01,2013-11-27 12:26:00,
2013-11-27 07:28:00,59.0,59.0,29.34,SSE,148,3.0,18.0,100,0.24,,---,1.17,VWS V14.01,2013-11-27 12:28:00,
2013-11-27 07:29:00,59.0,59.0,29.32,SSE,162,12.0,18.0,100,0.24,,---,1.17,VWS V14.01,2013-11-27 12:29:00,
2013-11-27 07:31:00,59.2,59.2,29.32,SSE,148,16.0,19.0,100,0.23,,---,1.18,VWS V14.01,2013-11-27 12:31:00,
2013-11-27 07:33:00,59.3,59.3,29.32,SSE,147,14.0,19.0,100,0.24,,---,1.19,VWS V14.01,2013-11-27 12:33:00,
2013-11-27 07:34:00,59.5,59.5,29.32,SSE,167,4.0,19.0,100,0.24,,---,1.19,VWS V14.01,2013-11-27 12:34:00,
2013-11-27 07:36:00,59.5,59.5,29.32,SSE,160,3.0,19.0,100,0.24,,---,1.19,VWS V14.01,2013-11-27 12:36:00,
2013-11-27 07:37:00,59.6,59.6,29.32,South,175,12.0,19.0,100,0.25,,---,1.20,VWS V14.01,2013-11-27 12:37:00,
2013-11-27 07:39:00,59.6,59.6,29.32,South,176,2.0,19.0,100,0.26,,---,1.21,VWS V14.01,2013-11-27 12:39:00,
2013-11-27 07:41:00,59.9,59.9,29.32,SSE,161,7.0,30.0,100,0.27,,---,1.22,VWS V14.01,2013-11-27 12:41:00,
2013-11-27 07:42:00,59.9,59.9,29.32,SSE,161,7.0,30.0,100,0.27,,---,1.22,VWS V14.01,2013-11-27 12:42:00,
2013-11-27 07:44:00,59.9,59.9,29.31,SSE,165,14.0,30.0,100,0.27,,---,1.22,VWS V14.01,2013-11-27 12:44:00,
2013-11-27 07:45:00,59.9,59.9,29.31,South,181,7.0,30.0,100,0.27,,---,1.22,VWS V14.01,2013-11-27 12:45:00,
2013-11-27 07:47:00,59.9,59.9,29.31,SSW,203,15.0,16.0,100,0.24,,---,1.22,VWS V14.01,2013-11-27 12:47:00,
2013-11-27 07:49:00,59.9,59.9,29.31,South,176,8.0,16.0,100,0.24,,---,1.22,VWS V14.01,2013-11-27 12:49:00,
2013-11-27 07:50:00,59.9,59.9,29.31,South,189,12.0,16.0,100,0.25,,---,1.23,VWS V14.01,2013-11-27 12:50:00,
2013-11-27 07:52:00,59.9,59.9,29.31,SW,217,7.0,16.0,100,0.25,,---,1.23,VWS V14.01,2013-11-27 12:52:00,
2013-11-27 07:54:00,59.9,59.9,29.31,SSE,167,14.0,32.0,100,0.25,,---,1.23,VWS V14.01,2013-11-27 12:54:00,
2013-11-27 07:55:00,59.9,59.9,29.31,SSE,161,16.0,32.0,100,0.25,,---,1.23,VWS V14.01,2013-11-27 12:55:00,
2013-11-27 07:57:00,60.1,60.1,29.31,SSE,154,14.0,32.0,100,0.26,,---,1.24,VWS V14.01,2013-11-27 12:57:00,
2013-11-27 07:59:00,60.4,60.4,29.31,South,189,7.0,36.0,100,0.27,,---,1.25,VWS V14.01,2013-11-27 12:59:00,
2013-11-27 08:00:00,60.4,60.4,29.31,SW,216,10.0,10.0,100,0.26,,---,1.25,VWS V14.01,2013-11-27 13:00:00,
2013-11-27 08:02:00,60.4,60.4,29.31,SSE,151,9.0,27.0,100,0.27,,---,1.26,VWS V14.01,2013-11-27 13:02:00,
2013-11-27 08:03:00,60.4,60.4,29.31,SSE,164,27.0,27.0,100,0.27,,---,1.26,VWS V14.01,2013-11-27 13:03:00,
2013-11-27 08:04:00,60.4,60.4,29.31,SSW,196,6.0,27.0,100,0.27,,---,1.26,VWS V14.01,2013-11-27 13:04:00,
2013-11-27 08:05:00,60.4,60.4,29.31,SSE,167,19.0,27.0,100,0.27,,---,1.26,VWS V14.01,2013-11-27 13:05:00,
2013-11-27 08:06:00,60.5,60.5,29.31,SE,145,12.0,27.0,100,0.27,,---,1.26,VWS V14.01,2013-11-27 13:06:00,
2013-11-27 08:07:00,60.7,60.7,29.31,South,184,8.0,27.0,100,0.27,,---,1.26,VWS V14.01,2013-11-27 13:07:00,
2013-11-27 08:08:00,60.7,60.7,29.31,SSE,164,12.0,27.0,100,0.27,,---,1.26,VWS V14.01,2013-11-27 13:08:00,
2013-11-27 08:09:00,60.9,60.9,29.31,WNW,284,6.0,27.0,100,0.27,,---,1.26,VWS V14.01,2013-11-27 13:09:00,
2013-11-27 08:10:00,60.9,60.9,29.31,SSW,195,25.0,27.0,100,0.27,,---,1.26,VWS V14.01,2013-11-27 13:10:00,
2013-11-27 08:11:00,61.0,61.0,29.31,SSW,192,12.0,27.0,100,0.27,,---,1.26,VWS V14.01,2013-11-27 13:11:00,
2013-11-27 08:12:00,61.0,61.0,29.31,SSW,199,16.0,27.0,100,0.27,,---,1.26,VWS V14.01,2013-11-27 13:12:00,
2013-11-27 08:13:00,61.0,61.0,29.31,SSE,162,19.0,27.0,100,0.27,,---,1.26,VWS V14.01,2013-11-27 13:13:00,
2013-11-27 08:14:00,61.0,61.0,29.31,SE,126,15.0,27.0,100,0.27,,---,1.26,VWS V14.01,2013-11-27 13:14:00,
2013-11-27 08:15:00,61.0,61.0,29.31,SSE,168,11.0,12.0,100,0.21,,---,1.26,VWS V14.01,2013-11-27 13:15:00,
2013-11-27 08:16:00,61.0,61.0,29.31,SE,126,5.0,20.0,100,0.21,,---,1.26,VWS V14.01,2013-11-27 13:16:00,
2013-11-27 08:18:00,61.0,61.0,29.31,South,172,6.0,20.0,100,0.21,,---,1.26,VWS V14.01,2013-11-27 13:18:00,
2013-11-27 08:20:00,61.0,61.0,29.31,SSW,209,4.0,26.0,100,0.21,,---,1.26,VWS V14.01,2013-11-27 13:20:00,
2013-11-27 08:21:00,61.2,61.2,29.31,SE,144,13.0,26.0,100,0.21,,---,1.26,VWS V14.01,2013-11-27 13:21:00,
2013-11-27 08:23:00,61.2,61.2,29.31,SW,223,7.0,26.0,100,0.21,,---,1.26,VWS V14.01,2013-11-27 13:23:00,
2013-11-27 08:25:00,61.3,61.3,29.31,SSE,157,21.0,26.0,100,0.23,,---,1.28,VWS V14.01,2013-11-27 13:25:00,
2013-11-27 08:26:00,61.5,61.5,29.31,SSW,199,7.0,26.0,100,0.24,,---,1.29,VWS V14.01,2013-11-27 13:26:00,
2013-11-27 08:28:00,61.3,61.3,29.31,SW,220,11.0,26.0,100,0.25,,---,1.30,VWS V14.01,2013-11-27 13:28:00,
2013-11-27 08:30:00,61.3,61.3,29.31,SSE,152,7.0,11.0,100,0.14,,---,1.31,VWS V14.01,2013-11-27 13:30:00,
2013-11-27 08:31:00,61.2,61.2,29.31,SSE,148,13.0,19.0,100,0.14,,---,1.31,VWS V14.01,2013-11-27 13:31:00,
2013-11-27 08:33:00,61.2,61.2,29.31,South,179,7.0,19.0,100,0.14,,---,1.31,VWS V14.01,2013-11-27 13:33:00,
2013-11-27 08:35:00,61.0,61.0,29.31,SSW,196,17.0,24.0,100,0.15,,---,1.32,VWS V14.01,2013-11-27 13:35:00,
2013-11-27 08:36:00,61.0,61.0,29.31,SSW,210,16.0,24.0,100,0.15,,---,1.32,VWS V14.01,2013-11-27 13:36:00,
2013-11-27 08:37:00,60.9,60.9,29.31,SSW,195,16.0,24.0,100,0.15,,---,1.32,VWS V14.01,2013-11-27 13:37:00,
2013-11-27 08:38:00,60.9,60.9,29.31,West,280,11.0,24.0,100,0.15,,---,1.32,VWS V14.01,2013-11-27 13:38:00,
2013-11-27 08:40:00,60.9,60.9,29.31,SSW,212,6.0,24.0,100,0.15,,---,1.32,VWS V14.01,2013-11-27 13:40:00,
2013-11-27 08:41:00,60.9,60.9,29.31,SE,144,9.0,24.0,100,0.15,,---,1.32,VWS V14.01,2013-11-27 13:41:00,
2013-11-27 08:42:00,60.9,60.9,29.31,South,169,12.0,24.0,100,0.15,,---,1.32,VWS V14.01,2013-11-27 13:42:00,
2013-11-27 08:43:00,60.9,60.9,29.31,South,172,4.0,24.0,100,0.15,,---,1.32,VWS V14.01,2013-11-27 13:43:00,
2013-11-27 08:44:00,60.9,60.9,29.31,SSW,202,14.0,24.0,100,0.15,,---,1.32,VWS V14.01,2013-11-27 13:44:00,
2013-11-27 08:45:00,60.9,60.9,29.31,SW,215,10.0,19.0,100,0.11,,---,1.33,VWS V14.01,2013-11-27 13:45:00,
2013-11-27 08:46:00,60.9,60.9,29.31,WSW,243,1.0,19.0,100,0.11,,---,1.33,VWS V14.01,2013-11-27 13:46:00,
2013-11-27 08:47:00,60.9,60.9,29.31,SW,222,6.0,19.0,100,0.11,,---,1.33,VWS V14.01,2013-11-27 13:47:00,
2013-11-27 08:48:00,60.9,60.9,29.31,SSW,192,6.0,19.0,100,0.11,,---,1.33,VWS V14.01,2013-11-27 13:48:00,
2013-11-27 08:49:00,60.9,60.9,29.31,SSW,198,2.0,19.0,100,0.11,,---,1.33,VWS V14.01,2013-11-27 13:49:00,
2013-11-27 08:50:00,60.9,60.9,29.31,South,182,5.0,19.0,100,0.11,,---,1.33,VWS V14.01,2013-11-27 13:50:00,
2013-11-27 08:52:00,61.0,61.0,29.31,SSE,152,5.0,19.0,100,0.11,,---,1.33,VWS V14.01,2013-11-27 13:52:00,
2013-11-27 08:54:00,61.0,61.0,29.31,SW,227,3.0,20.0,100,0.11,,---,1.33,VWS V14.01,2013-11-27 13:54:00,
2013-11-27 08:55:00,61.0,61.0,29.31,South,178,16.0,20.0,100,0.11,,---,1.33,VWS V14.01,2013-11-27 13:55:00,
2013-11-27 08:57:00,61.0,61.0,29.31,SW,220,5.0,20.0,100,0.11,,---,1.33,VWS V14.01,2013-11-27 13:57:00,
2013-11-27 08:59:00,61.0,61.0,29.31,SSW,212,8.0,20.0,100,0.11,,---,1.33,VWS V14.01,2013-11-27 13:59:00,
2013-11-27 09:00:00,61.0,61.0,29.31,SSW,213,18.0,18.0,100,0.08,,---,1.33,VWS V14.01,2013-11-27 14:00:00,
2013-11-27 09:02:00,61.2,61.2,29.31,SSW,213,8.0,18.0,100,0.08,,---,1.33,VWS V14.01,2013-11-27 14:02:00,
2013-11-27 09:04:00,61.2,61.2,29.31,SW,219,3.0,18.0,100,0.08,,---,1.33,VWS V14.01,2013-11-27 14:04:00,
2013-11-27 09:05:00,61.2,61.2,29.31,SW,220,10.0,18.0,100,0.08,,---,1.33,VWS V14.01,2013-11-27 14:05:00,
2013-11-27 09:07:00,61.2,61.2,29.31,SSE,167,8.0,18.0,100,0.08,,---,1.33,VWS V14.01,2013-11-27 14:07:00,
2013-11-27 09:09:00,61.2,61.2,29.31,SW,220,2.0,18.0,100,0.08,,---,1.33,VWS V14.01,2013-11-27 14:09:00,
2013-11-27 09:10:00,61.2,61.2,29.31,SW,234,10.0,18.0,100,0.09,,---,1.34,VWS V14.01,2013-11-27 14:10:00,
2013-11-27 09:11:00,61.2,61.2,29.31,SW,236,10.0,18.0,100,0.09,,---,1.34,VWS V14.01,2013-11-27 14:11:00,
2013-11-27 09:12:00,61.2,61.2,29.31,SSW,200,14.0,18.0,100,0.09,,---,1.34,VWS V14.01,2013-11-27 14:12:00,
2013-11-27 09:13:00,61.2,61.2,29.31,SSW,198,3.0,18.0,100,0.09,,---,1.34,VWS V14.01,2013-11-27 14:13:00,
2013-11-27 09:14:00,61.2,61.2,29.30,SSE,165,2.0,18.0,100,0.09,,---,1.34,VWS V14.01,2013-11-27 14:14:00,
2013-11-27 09:15:00,61.2,61.2,29.30,SSW,195,7.0,11.0,100,0.08,,---,1.34,VWS V14.01,2013-11-27 14:15:00,
2013-11-27 09:16:00,61.2,61.2,29.30,SSW,210,12.0,12.0,100,0.08,,---,1.34,VWS V14.01,2013-11-27 14:16:00,
2013-11-27 09:17:00,61.2,61.2,29.30,SSW,209,12.0,14.0,100,0.08,,---,1.34,VWS V14.01,2013-11-27 14:17:00,
2013-11-27 09:18:00,61.2,61.2,29.30,SSW,205,7.0,14.0,100,0.08,,---,1.34,VWS V14.01,2013-11-27 14:18:00,
2013-11-27 09:19:00,61.2,61.2,29.30,WSW,248,6.0,14.0,100,0.08,,---,1.34,VWS V14.01,2013-11-27 14:19:00,
2013-11-27 09:21:00,61.0,61.0,29.30,SSW,212,6.0,14.0,100,0.08,,---,1.34,VWS V14.01,2013-11-27 14:21:00,
2013-11-27 09:22:00,61.0,61.0,29.30,SSW,210,5.0,14.0,100,0.08,,---,1.34,VWS V14.01,2013-11-27 14:22:00,
2013-11-27 09:23:00,61.0,61.0,29.30,SW,217,11.0,14.0,100,0.08,,---,1.34,VWS V14.01,2013-11-27 14:23:00,
2013-11-27 09:24:00,60.9,60.9,29.30,WSW,251,8.0,17.0,100,0.08,,---,1.34,VWS V14.01,2013-11-27 14:24:00,
2013-11-27 09:26:00,60.9,60.9,29.30,SSW,213,13.0,17.0,100,0.08,,---,1.34,VWS V14.01,2013-11-27 14:26:00,
2013-11-27 09:27:00,60.7,60.7,29.30,WSW,257,4.0,17.0,100,0.08,,---,1.34,VWS V14.01,2013-11-27 14:27:00,
2013-11-27 09:28:00,60.7,60.7,29.30,WSW,240,8.0,17.0,100,0.08,,---,1.34,VWS V14.01,2013-11-27 14:28:00,
2013-11-27 09:30:00,60.5,60.5,29.30,West,267,13.0,14.0,100,0.03,,---,1.34,VWS V14.01,2013-11-27 14:30:00,
2013-11-27 09:31:00,60.4,60.4,29.30,South,185,12.0,14.0,100,0.03,,---,1.34,VWS V14.01,2013-11-27 14:31:00,
2013-11-27 09:33:00,60.4,60.4,29.30,SSW,196,3.0,16.0,100,0.03,,---,1.34,VWS V14.01,2013-11-27 14:33:00,
2013-11-27 09:35:00,60.4,60.4,29.30,WSW,257,13.0,16.0,100,0.03,,---,1.34,VWS V14.01,2013-11-27 14:35:00,
2013-11-27 09:36:00,60.2,60.2,29.30,West,263,6.0,16.0,100,0.03,,---,1.34,VWS V14.01,2013-11-27 14:36:00,
2013-11-27 09:37:00,60.2,60.2,29.30,WSW,250,1.0,16.0,100,0.03,,---,1.34,VWS V14.01,2013-11-27 14:37:00,
2013-11-27 09:38:00,60.1,60.1,29.30,SW,223,3.0,16.0,100,0.03,,---,1.34,VWS V14.01,2013-11-27 14:38:00,
2013-11-27 09:39:00,60.1,60.1,29.30,SW,223,3.0,16.0,100,0.03,,---,1.34,VWS V14.01,2013-11-27 14:39:00,
2013-11-27 09:41:00,60.1,60.1,29.30,SSW,210,14.0,16.0,100,0.03,,---,1.34,VWS V14.01,2013-11-27 14:41:00,
2013-11-27 09:42:00,60.1,60.1,29.30,South,179,7.0,16.0,100,0.03,,---,1.34,VWS V14.01,2013-11-27 14:42:00,
2013-11-27 09:44:00,60.1,60.1,29.30,SSW,209,13.0,16.0,100,0.03,,---,1.34,VWS V14.01,2013-11-27 14:44:00,
2013-11-27 09:46:00,60.1,60.1,29.30,SW,223,14.0,14.0,100,0.02,,---,1.34,VWS V14.01,2013-11-27 14:46:00,
2013-11-27 09:47:00,60.1,60.1,29.30,SW,216,6.0,14.0,100,0.02,,---,1.34,VWS V14.01,2013-11-27 14:47:00,
2013-11-27 09:48:00,59.9,59.9,29.30,SW,234,5.0,14.0,100,0.02,,---,1.34,VWS V14.01,2013-11-27 14:48:00,
2013-11-27 09:49:00,59.9,59.9,29.30,SSW,209,4.0,17.0,100,0.02,,---,1.34,VWS V14.01,2013-11-27 14:49:00,
2013-11-27 09:50:00,59.9,59.9,29.30,WSW,246,7.0,17.0,100,0.03,,---,1.35,VWS V14.01,2013-11-27 14:50:00,
2013-11-27 09:51:00,59.8,59.8,29.30,SE,143,0.0,17.0,100,0.03,,---,1.35,VWS V14.01,2013-11-27 14:51:00,
2013-11-27 09:52:00,59.8,59.8,29.30,SSW,209,2.0,17.0,100,0.03,,---,1.35,VWS V14.01,2013-11-27 14:52:00,
2013-11-27 09:53:00,59.8,59.8,29.30,South,191,1.0,17.0,100,0.03,,---,1.35,VWS V14.01,2013-11-27 14:53:00,
2013-11-27 09:54:00,59.6,59.6,29.30,SW,226,5.0,17.0,100,0.03,,---,1.35,VWS V14.01,2013-11-27 14:54:00,
2013-11-27 09:55:00,59.6,59.6,29.30,WSW,241,10.0,17.0,100,0.03,,---,1.35,VWS V14.01,2013-11-27 14:55:00,
2013-11-27 09:56:00,59.6,59.6,29.30,SSW,209,8.0,17.0,100,0.03,,---,1.35,VWS V14.01,2013-11-27 14:56:00,
2013-11-27 09:57:00,59.6,59.6,29.30,WSW,243,9.0,17.0,100,0.03,,---,1.35,VWS V14.01,2013-11-27 14:57:00,
2013-11-27 09:58:00,59.6,59.6,29.30,SW,226,11.0,17.0,100,0.03,,---,1.35,VWS V14.01,2013-11-27 14:58:00,
2013-11-27 09:59:00,59.5,59.5,29.29,SW,224,10.0,17.0,100,0.03,,---,1.35,VWS V14.01,2013-11-27 14:59:00,
2013-11-27 10:00:00,59.5,59.5,29.29,WSW,246,7.0,10.0,100,0.02,,---,1.35,VWS V14.01,2013-11-27 15:00:00,
2013-11-27 10:02:00,59.5,59.5,29.29,SW,223,7.0,10.0,100,0.02,,---,1.35,VWS V14.01,2013-11-27 15:02:00,
2013-11-27 10:03:00,59.5,59.5,29.29,SW,226,5.0,11.0,100,0.02,,---,1.35,VWS V14.01,2013-11-27 15:03:00,
2013-11-27 10:05:00,59.5,59.5,29.29,SW,222,4.0,17.0,100,0.02,,---,1.35,VWS V14.01,2013-11-27 15:05:00,
2013-11-27 10:07:00,59.5,59.5,29.29,SW,230,6.0,17.0,100,0.02,,---,1.35,VWS V14.01,2013-11-27 15:07:00,
2013-11-27 10:08:00,59.5,59.5,29.29,SW,232,7.0,17.0,100,0.02,,---,1.35,VWS V14.01,2013-11-27 15:08:00,
2013-11-27 10:10:00,59.3,59.3,29.29,South,181,1.0,17.0,100,0.02,,---,1.35,VWS V14.01,2013-11-27 15:10:00,
2013-11-27 10:12:00,59.3,59.3,29.29,SW,220,6.0,17.0,100,0.02,,---,1.35,VWS V14.01,2013-11-27 15:12:00,
2013-11-27 10:13:00,59.3,59.3,29.29,WSW,239,5.0,17.0,100,0.02,,---,1.35,VWS V14.01,2013-11-27 15:13:00,
2013-11-27 10:15:00,59.2,59.2,29.27,SW,236,10.0,10.0,100,0.01,,---,1.35,VWS V14.01,2013-11-27 15:15:00,
2013-11-27 10:17:00,59.2,59.2,29.27,SW,219,2.0,12.0,100,0.01,,---,1.35,VWS V14.01,2013-11-27 15:17:00,
2013-11-27 10:18:00,59.0,59.0,29.27,SW,217,6.0,12.0,100,0.01,,---,1.35,VWS V14.01,2013-11-27 15:18:00,
2013-11-27 10:20:00,59.0,59.0,29.27,SSW,205,4.0,12.0,100,0.01,,---,1.35,VWS V14.01,2013-11-27 15:20:00,
2013-11-27 10:22:00,58.9,58.9,29.27,SW,233,5.0,12.0,100,0.01,,---,1.35,VWS V14.01,2013-11-27 15:22:00,
2013-11-27 10:23:00,58.9,58.9,29.27,SW,222,2.0,12.0,100,0.01,,---,1.35,VWS V14.01,2013-11-27 15:23:00,
2013-11-27 10:25:00,58.9,58.9,29.27,SSW,210,4.0,12.0,100,0.01,,---,1.35,VWS V14.01,2013-11-27 15:25:00,
2013-11-27 10:27:00,58.9,58.9,29.27,SW,232,2.0,12.0,100,0.01,,---,1.35,VWS V14.01,2013-11-27 15:27:00,
2013-11-27 10:28:00,58.9,58.9,29.27,SSW,212,6.0,12.0,100,0.01,,---,1.35,VWS V14.01,2013-11-27 15:28:00,
2013-11-27 10:29:00,58.9,58.9,29.26,SW,216,3.0,12.0,100,0.02,,---,1.36,VWS V14.01,2013-11-27 15:29:00,
2013-11-27 10:30:00,58.9,58.9,29.26,SW,232,6.0,6.0,100,0.02,,---,1.36,VWS V14.01,2013-11-27 15:30:00,
2013-11-27 10:32:00,58.7,58.7,29.26,West,263,1.0,7.0,100,0.02,,---,1.36,VWS V14.01,2013-11-27 15:32:00,
2013-11-27 10:33:00,58.7,58.7,29.26,SW,230,2.0,7.0,100,0.02,,---,1.36,VWS V14.01,2013-11-27 15:33:00,
2013-11-27 10:35:00,58.7,58.7,29.26,SW,226,3.0,7.0,100,0.02,,---,1.36,VWS V14.01,2013-11-27 15:35:00,
2013-11-27 10:37:00,58.7,58.7,29.26,WSW,241,8.0,11.0,100,0.03,,---,1.37,VWS V14.01,2013-11-27 15:37:00,
2013-11-27 10:38:00,58.7,58.7,29.26,SW,232,8.0,11.0,100,0.03,,---,1.37,VWS V14.01,2013-11-27 15:38:00,
2013-11-27 10:40:00,58.7,58.7,29.26,SSW,198,10.0,11.0,100,0.03,,---,1.37,VWS V14.01,2013-11-27 15:40:00,
2013-11-27 10:42:00,58.7,58.7,29.26,South,188,0.0,11.0,100,0.03,,---,1.37,VWS V14.01,2013-11-27 15:42:00,
2013-11-27 10:43:00,58.7,58.7,29.26,SSW,203,6.0,11.0,100,0.03,,---,1.37,VWS V14.01,2013-11-27 15:43:00,
2013-11-27 10:45:00,58.6,58.6,29.25,South,179,6.0,6.0,100,0.04,,---,1.38,VWS V14.01,2013-11-27 15:45:00,
2013-11-27 10:46:00,58.6,58.6,29.25,SSW,196,6.0,12.0,100,0.05,,---,1.39,VWS V14.01,2013-11-27 15:46:00,
2013-11-27 10:47:00,58.6,58.6,29.25,WSW,243,5.0,12.0,100,0.05,,---,1.39,VWS V14.01,2013-11-27 15:47:00,
2013-11-27 10:48:00,58.6,58.6,29.25,SW,230,6.0,12.0,100,0.05,,---,1.39,VWS V14.01,2013-11-27 15:48:00,
2013-11-27 10:50:00,58.6,58.6,29.25,WSW,243,3.0,14.0,100,0.06,,---,1.40,VWS V14.01,2013-11-27 15:50:00,
2013-11-27 10:51:00,58.6,58.6,29.25,SW,236,6.0,14.0,100,0.06,,---,1.40,VWS V14.01,2013-11-27 15:51:00,
2013-11-27 10:53:00,58.6,58.6,29.25,SW,233,2.0,14.0,100,0.06,,---,1.40,VWS V14.01,2013-11-27 15:53:00,
2013-11-27 10:55:00,58.6,58.6,29.25,WSW,253,2.0,14.0,100,0.06,,---,1.40,VWS V14.01,2013-11-27 15:55:00,
2013-11-27 10:56:00,58.7,58.7,29.25,West,277,9.0,17.0,100,0.06,,---,1.40,VWS V14.01,2013-11-27 15:56:00,
2013-11-27 10:58:00,58.7,58.7,29.25,SW,222,1.0,17.0,100,0.06,,---,1.40,VWS V14.01,2013-11-27 15:58:00,
2013-11-27 10:59:00,58.7,58.7,29.25,SW,223,6.0,17.0,100,0.06,,---,1.40,VWS V14.01,2013-11-27 15:59:00,
2013-11-27 11:00:00,58.6,58.6,29.25,SSW,202,0.0,7.0,100,0.05,,---,1.40,VWS V14.01,2013-11-27 16:00:00,
2013-11-27 11:01:00,58.6,58.6,29.25,WSW,250,1.0,8.0,100,0.06,,---,1.41,VWS V14.01,2013-11-27 16:01:00,
2013-11-27 11:02:00,58.6,58.6,29.25,WSW,241,2.0,8.0,100,0.06,,---,1.41,VWS V14.01,2013-11-27 16:02:00,
2013-11-27 11:03:00,58.6,58.6,29.25,WSW,243,6.0,8.0,100,0.06,,---,1.41,VWS V14.01,2013-11-27 16:03:00,
2013-11-27 11:04:00,58.4,58.4,29.25,SW,222,8.0,8.0,100,0.06,,---,1.41,VWS V14.01,2013-11-27 16:04:00,
2013-11-27 11:05:00,58.4,58.4,29.25,SW,227,6.0,11.0,100,0.06,,---,1.41,VWS V14.01,2013-11-27 16:05:00,
2013-11-27 11:06:00,58.4,58.4,29.25,SW,230,5.0,11.0,100,0.06,,---,1.41,VWS V14.01,2013-11-27 16:06:00,
2013-11-27 11:07:00,58.4,58.4,29.25,SSW,210,5.0,11.0,100,0.07,,---,1.42,VWS V14.01,2013-11-27 16:07:00,
2013-11-27 11:08:00,58.4,58.4,29.25,WSW,240,4.0,11.0,100,0.07,,---,1.42,VWS V14.01,2013-11-27 16:08:00,
2013-11-27 11:09:00,58.3,58.3,29.25,SSW,209,4.0,11.0,100,0.08,,---,1.43,VWS V14.01,2013-11-27 16:09:00,
2013-11-27 11:10:00,58.3,58.3,29.25,West,264,1.0,11.0,100,0.09,,---,1.44,VWS V14.01,2013-11-27 16:10:00,
2013-11-27 11:12:00,58.3,58.3,29.25,WSW,250,3.0,11.0,100,0.10,,---,1.45,VWS V14.01,2013-11-27 16:12:00,
2013-11-27 11:13:00,58.3,58.3,29.25,South,185,2.0,11.0,100,0.11,,---,1.46,VWS V14.01,2013-11-27 16:13:00,
2013-11-27 11:14:00,58.3,58.3,29.24,WSW,253,2.0,11.0,100,0.12,,---,1.47,VWS V14.01,2013-11-27 16:14:00,
2013-11-27 11:17:00,58.3,58.3,29.24,West,263,4.0,7.0,100,0.14,,---,1.49,VWS V14.01,2013-11-27 16:17:00,
2013-11-27 11:18:00,58.3,58.3,29.24,WNW,292,0.0,7.0,100,0.15,,---,1.50,VWS V14.01,2013-11-27 16:18:00,
2013-11-27 11:19:00,58.3,58.3,29.24,WNW,289,5.0,7.0,100,0.15,,---,1.50,VWS V14.01,2013-11-27 16:19:00,
2013-11-27 11:20:00,58.3,58.3,29.24,WNW,289,5.0,7.0,100,0.15,,---,1.50,VWS V14.01,2013-11-27 16:20:00,
2013-11-27 11:22:00,58.3,58.3,29.24,West,264,1.0,7.0,100,0.17,,---,1.52,VWS V14.01,2013-11-27 16:22:00,
2013-11-27 11:23:00,58.1,58.1,29.24,West,270,5.0,11.0,100,0.17,,---,1.52,VWS V14.01,2013-11-27 16:23:00,
2013-11-27 11:24:00,58.1,58.1,29.24,WSW,239,6.0,11.0,100,0.18,,---,1.53,VWS V14.01,2013-11-27 16:24:00,
2013-11-27 11:25:00,58.1,58.1,29.24,WSW,250,0.0,11.0,100,0.18,,---,1.53,VWS V14.01,2013-11-27 16:25:00,
2013-11-27 11:27:00,58.1,58.1,29.24,West,268,2.0,11.0,100,0.18,,---,1.53,VWS V14.01,2013-11-27 16:27:00,
2013-11-27 11:28:00,58.1,58.1,29.24,West,275,1.0,11.0,100,0.19,,---,1.54,VWS V14.01,2013-11-27 16:28:00,
2013-11-27 11:30:00,58.1,58.1,29.23,West,278,2.0,6.0,100,0.18,,---,1.54,VWS V14.01,2013-11-27 16:30:00,
2013-11-27 11:31:00,58.1,58.1,29.23,West,277,2.0,6.0,100,0.18,,---,1.54,VWS V14.01,2013-11-27 16:31:00,
2013-11-27 11:32:00,58.1,58.1,29.23,West,270,1.0,6.0,100,0.18,,---,1.54,VWS V14.01,2013-11-27 16:32:00,
2013-11-27 11:33:00,58.1,58.1,29.23,SW,236,2.0,6.0,100,0.18,,---,1.55,VWS V14.01,2013-11-27 16:33:00,
2013-11-27 11:34:00,58.0,58.0,29.23,SW,236,3.0,6.0,100,0.19,,---,1.55,VWS V14.01,2013-11-27 16:34:00,
2013-11-27 11:35:00,58.0,58.0,29.23,West,272,0.0,7.0,100,0.20,,---,1.56,VWS V14.01,2013-11-27 16:35:00,
2013-11-27 11:36:00,58.0,58.0,29.23,SW,215,3.0,7.0,100,0.20,,---,1.56,VWS V14.01,2013-11-27 16:36:00,
2013-11-27 11:37:00,58.0,58.0,29.23,WSW,246,0.0,7.0,100,0.20,,---,1.56,VWS V14.01,2013-11-27 16:37:00,
2013-11-27 11:38:00,58.0,58.0,29.23,WNW,296,1.0,7.0,100,0.20,,---,1.56,VWS V14.01,2013-11-27 16:38:00,
2013-11-27 11:39:00,58.0,58.0,29.23,WNW,296,0.0,7.0,100,0.20,,---,1.56,VWS V14.01,2013-11-27 16:39:00,
2013-11-27 11:40:00,58.0,58.0,29.23,West,274,0.0,7.0,100,0.21,,---,1.57,VWS V14.01,2013-11-27 16:40:00,
2013-11-27 11:41:00,58.0,58.0,29.23,West,267,0.0,7.0,100,0.21,,---,1.57,VWS V14.01,2013-11-27 16:41:00,
2013-11-27 11:42:00,58.0,58.0,29.23,WSW,253,0.0,7.0,100,0.21,,---,1.57,VWS V14.01,2013-11-27 16:42:00,
2013-11-27 11:43:00,58.0,58.0,29.23,WSW,246,2.0,7.0,100,0.21,,---,1.57,VWS V14.01,2013-11-27 16:43:00,
2013-11-27 11:44:00,58.0,58.0,29.21,SW,219,1.0,7.0,100,0.21,,---,1.57,VWS V14.01,2013-11-27 16:44:00,
2013-11-27 11:46:00,57.8,57.8,29.21,SW,232,0.0,3.0,100,0.19,,---,1.57,VWS V14.01,2013-11-27 16:46:00,
2013-11-27 11:47:00,57.8,57.8,29.21,SW,234,1.0,3.0,100,0.19,,---,1.57,VWS V14.01,2013-11-27 16:47:00,
2013-11-27 11:48:00,57.8,57.8,29.21,SW,234,0.0,3.0,100,0.19,,---,1.57,VWS V14.01,2013-11-27 16:48:00,
2013-11-27 11:49:00,57.8,57.8,29.21,SW,234,0.0,3.0,100,0.19,,---,1.57,VWS V14.01,2013-11-27 16:49:00,
2013-11-27 11:51:00,57.8,57.8,29.21,SW,234,0.0,3.0,100,0.19,,---,1.57,VWS V14.01,2013-11-27 16:51:00,
2013-11-27 11:53:00,57.8,57.8,29.21,SW,234,0.0,3.0,100,0.19,,---,1.57,VWS V14.01,2013-11-27 16:53:00,
2013-11-27 11:54:00,57.8,57.8,29.21,SW,234,0.0,3.0,100,0.19,,---,1.57,VWS V14.01,2013-11-27 16:54:00,
2013-11-27 11:56:00,57.8,57.8,29.21,SW,234,1.0,3.0,100,0.19,,---,1.57,VWS V14.01,2013-11-27 16:56:00,
2013-11-27 11:58:00,57.8,57.8,29.21,SW,234,1.0,3.0,100,0.19,,---,1.57,VWS V14.01,2013-11-27 16:58:00,
2013-11-27 11:59:00,57.8,57.8,29.19,SW,234,3.0,3.0,100,0.19,,---,1.57,VWS V14.01,2013-11-27 16:59:00,
2013-11-27 12:01:00,58.0,58.0,29.19,SW,234,3.0,3.0,100,0.17,,---,1.57,VWS V14.01,2013-11-27 17:01:00,
2013-11-27 12:02:00,58.0,58.0,29.19,SW,233,0.0,3.0,100,0.17,,---,1.57,VWS V14.01,2013-11-27 17:02:00,
2013-11-27 12:03:00,57.8,57.8,29.19,West,270,0.0,4.0,100,0.17,,---,1.57,VWS V14.01,2013-11-27 17:03:00,
2013-11-27 12:04:00,57.8,57.8,29.19,SW,233,3.0,4.0,100,0.17,,---,1.57,VWS V14.01,2013-11-27 17:04:00,
2013-11-27 12:06:00,57.8,57.8,29.19,WSW,243,0.0,4.0,100,0.17,,---,1.57,VWS V14.01,2013-11-27 17:06:00,
2013-11-27 12:07:00,57.8,57.8,29.19,WSW,257,0.0,4.0,100,0.17,,---,1.57,VWS V14.01,2013-11-27 17:07:00,
2013-11-27 12:08:00,57.8,57.8,29.19,WSW,254,1.0,4.0,100,0.17,,---,1.57,VWS V14.01,2013-11-27 17:08:00,
2013-11-27 12:09:00,57.8,57.8,29.19,SSW,210,2.0,5.0,100,0.17,,---,1.57,VWS V14.01,2013-11-27 17:09:00,
2013-11-27 12:10:00,57.8,57.8,29.19,SSW,210,0.0,5.0,100,0.17,,---,1.57,VWS V14.01,2013-11-27 17:10:00,
2013-11-27 12:12:00,57.8,57.8,29.19,SSW,209,0.0,5.0,100,0.17,,---,1.57,VWS V14.01,2013-11-27 17:12:00,
2013-11-27 12:13:00,57.8,57.8,29.19,SSW,209,0.0,5.0,100,0.17,,---,1.57,VWS V14.01,2013-11-27 17:13:00,
2013-11-27 12:14:00,57.8,57.8,29.19,SSW,195,3.0,5.0,100,0.17,,---,1.57,VWS V14.01,2013-11-27 17:14:00,
2013-11-27 12:15:00,58.0,58.0,29.19,SSE,167,5.0,5.0,100,0.10,,---,1.57,VWS V14.01,2013-11-27 17:15:00,
2013-11-27 12:17:00,58.0,58.0,29.19,SSE,147,2.0,5.0,100,0.11,,---,1.58,VWS V14.01,2013-11-27 17:17:00,
2013-11-27 12:18:00,58.0,58.0,29.19,SSE,147,1.0,5.0,100,0.11,,---,1.58,VWS V14.01,2013-11-27 17:18:00,
2013-11-27 12:19:00,58.0,58.0,29.19,SSE,147,0.0,5.0,100,0.11,,---,1.58,VWS V14.01,2013-11-27 17:19:00,
2013-11-27 12:20:00,58.0,58.0,29.19,SSE,147,0.0,5.0,100,0.11,,---,1.58,VWS V14.01,2013-11-27 17:20:00,
2013-11-27 12:22:00,58.0,58.0,29.19,SE,131,0.0,6.0,100,0.11,,---,1.58,VWS V14.01,2013-11-27 17:22:00,
2013-11-27 12:23:00,58.0,58.0,29.19,South,172,3.0,6.0,100,0.11,,---,1.58,VWS V14.01,2013-11-27 17:23:00,
2013-11-27 12:24:00,58.0,58.0,29.19,South,181,2.0,6.0,100,0.11,,---,1.58,VWS V14.01,2013-11-27 17:24:00,
2013-11-27 12:25:00,58.0,58.0,29.19,South,191,0.0,6.0,100,0.11,,---,1.58,VWS V14.01,2013-11-27 17:25:00,
2013-11-27 12:27:00,58.0,58.0,29.19,WSW,248,0.0,6.0,100,0.11,,---,1.58,VWS V14.01,2013-11-27 17:27:00,
2013-11-27 12:28:00,58.1,58.1,29.19,West,263,3.0,6.0,100,0.11,,---,1.58,VWS V14.01,2013-11-27 17:28:00,
2013-11-27 12:29:00,58.1,58.1,29.19,WSW,248,2.0,6.0,100,0.12,,---,1.59,VWS V14.01,2013-11-27 17:29:00,
2013-11-27 12:30:00,58.0,58.0,29.19,WSW,248,3.0,3.0,100,0.05,,---,1.59,VWS V14.01,2013-11-27 17:30:00,
2013-11-27 12:33:00,58.0,58.0,29.19,West,272,0.0,4.0,100,0.05,,---,1.59,VWS V14.01,2013-11-27 17:33:00,
2013-11-27 12:34:00,58.0,58.0,29.19,West,272,0.0,4.0,100,0.05,,---,1.59,VWS V14.01,2013-11-27 17:34:00,
2013-11-27 12:35:00,58.0,58.0,29.19,West,274,0.0,4.0,100,0.05,,---,1.59,VWS V14.01,2013-11-27 17:35:00,
2013-11-27 12:38:00,57.8,57.8,29.19,West,272,0.0,4.0,100,0.06,,---,1.60,VWS V14.01,2013-11-27 17:38:00,
2013-11-27 12:39:00,57.8,57.8,29.19,West,272,0.0,4.0,100,0.07,,---,1.61,VWS V14.01,2013-11-27 17:39:00,
2013-11-27 12:40:00,57.8,57.8,29.19,West,272,0.0,4.0,100,0.07,,---,1.61,VWS V14.01,2013-11-27 17:40:00,
2013-11-27 12:41:00,57.8,57.8,29.19,West,272,0.0,4.0,100,0.07,,---,1.61,VWS V14.01,2013-11-27 17:41:00,
2013-11-27 12:43:00,57.8,57.8,29.19,West,274,0.0,4.0,100,0.08,,---,1.62,VWS V14.01,2013-11-27 17:43:00,
2013-11-27 12:45:00,57.8,57.8,29.17,West,272,0.0,0.0,100,0.05,,---,1.62,VWS V14.01,2013-11-27 17:45:00,
2013-11-27 12:46:00,57.8,57.8,29.17,West,272,0.0,0.0,100,0.06,,---,1.63,VWS V14.01,2013-11-27 17:46:00,
2013-11-27 12:49:00,57.8,57.8,29.17,West,272,0.0,0.0,100,0.06,,---,1.63,VWS V14.01,2013-11-27 17:49:00,
2013-11-27 12:50:00,57.8,57.8,29.17,West,272,0.0,0.0,100,0.06,,---,1.63,VWS V14.01,2013-11-27 17:50:00,
2013-11-27 12:51:00,57.8,57.8,29.17,West,272,0.0,0.0,100,0.06,,---,1.63,VWS V14.01,2013-11-27 17:51:00,
2013-11-27 12:54:00,57.8,57.8,29.17,West,274,0.0,0.0,100,0.06,,---,1.63,VWS V14.01,2013-11-27 17:54:00,
2013-11-27 12:55:00,57.8,57.8,29.17,West,272,0.0,0.0,100,0.06,,---,1.63,VWS V14.01,2013-11-27 17:55:00,
2013-11-27 12:57:00,57.8,57.8,29.17,West,274,0.0,0.0,100,0.06,,---,1.63,VWS V14.01,2013-11-27 17:57:00,
2013-11-27 12:59:00,57.8,57.8,29.16,West,272,0.0,0.0,100,0.06,,---,1.63,VWS V14.01,2013-11-27 17:59:00,
2013-11-27 13:00:00,58.0,58.0,29.16,West,272,0.0,0.0,100,0.06,,---,1.63,VWS V14.01,2013-11-27 18:00:00,
2013-11-27 13:02:00,58.0,58.0,29.16,West,274,0.0,0.0,100,0.07,,---,1.64,VWS V14.01,2013-11-27 18:02:00,
2013-11-27 13:04:00,58.0,58.0,29.16,West,272,0.0,0.0,100,0.07,,---,1.64,VWS V14.01,2013-11-27 18:04:00,
2013-11-27 13:05:00,58.0,58.0,29.16,West,274,0.0,2.0,100,0.07,,---,1.64,VWS V14.01,2013-11-27 18:05:00,
2013-11-27 13:07:00,58.0,58.0,29.16,West,272,0.0,2.0,100,0.07,,---,1.64,VWS V14.01,2013-11-27 18:07:00,
2013-11-27 13:09:00,58.0,58.0,29.16,SW,229,1.0,2.0,100,0.07,,---,1.64,VWS V14.01,2013-11-27 18:09:00,
2013-11-27 13:10:00,58.0,58.0,29.16,SW,229,1.0,2.0,100,0.07,,---,1.64,VWS V14.01,2013-11-27 18:10:00,
2013-11-27 13:12:00,57.8,57.8,29.16,South,185,4.0,4.0,100,0.07,,---,1.64,VWS V14.01,2013-11-27 18:12:00,
2013-11-27 13:15:00,57.8,57.8,29.18,WSW,246,1.0,2.0,100,0.07,,---,1.64,VWS V14.01,2013-11-27 18:15:00,
2013-11-27 13:16:00,57.8,57.8,29.18,SW,227,0.0,2.0,100,0.07,,---,1.64,VWS V14.01,2013-11-27 18:16:00,
2013-11-27 13:18:00,57.6,57.6,29.18,WSW,247,0.0,2.0,100,0.07,,---,1.64,VWS V14.01,2013-11-27 18:18:00,
2013-11-27 13:20:00,57.6,57.6,29.18,SSW,212,0.0,5.0,100,0.07,,---,1.64,VWS V14.01,2013-11-27 18:20:00,
2013-11-27 13:21:00,57.6,57.6,29.18,SW,217,0.0,5.0,100,0.07,,---,1.64,VWS V14.01,2013-11-27 18:21:00,
2013-11-27 13:23:00,57.5,57.5,29.18,SW,215,0.0,5.0,100,0.07,,---,1.64,VWS V14.01,2013-11-27 18:23:00,
2013-11-27 13:25:00,57.3,57.3,29.18,West,265,2.0,5.0,100,0.07,,---,1.64,VWS V14.01,2013-11-27 18:25:00,
2013-11-27 13:26:00,57.3,57.3,29.18,West,274,4.0,5.0,100,0.07,,---,1.64,VWS V14.01,2013-11-27 18:26:00,
2013-11-27 13:28:00,57.3,57.3,29.18,WNW,298,4.0,5.0,100,0.07,,---,1.64,VWS V14.01,2013-11-27 18:28:00,
2013-11-27 13:30:00,57.2,57.2,29.17,WNW,292,6.0,7.0,100,0.05,,---,1.64,VWS V14.01,2013-11-27 18:30:00,
2013-11-27 13:31:00,57.2,57.2,29.17,WSW,248,7.0,7.0,100,0.05,,---,1.64,VWS V14.01,2013-11-27 18:31:00,
2013-11-27 13:33:00,57.0,57.0,29.17,WSW,251,5.0,9.0,100,0.05,,---,1.64,VWS V14.01,2013-11-27 18:33:00,
2013-11-27 13:35:00,56.9,56.9,29.17,WSW,253,3.0,9.0,100,0.05,,---,1.64,VWS V14.01,2013-11-27 18:35:00,
2013-11-27 13:36:00,56.9,56.9,29.17,WSW,253,6.0,9.0,100,0.05,,---,1.64,VWS V14.01,2013-11-27 18:36:00,
2013-11-27 13:37:00,56.9,56.9,29.17,WSW,250,3.0,9.0,100,0.05,,---,1.64,VWS V14.01,2013-11-27 18:37:00,
2013-11-27 13:38:00,56.9,56.9,29.17,WSW,250,0.0,9.0,100,0.05,,---,1.64,VWS V14.01,2013-11-27 18:38:00,
2013-11-27 13:40:00,56.9,56.9,29.17,WSW,256,6.0,9.0,100,0.05,,---,1.64,VWS V14.01,2013-11-27 18:40:00,
2013-11-27 13:41:00,56.7,56.7,29.17,WSW,253,3.0,9.0,100,0.05,,---,1.64,VWS V14.01,2013-11-27 18:41:00,
2013-11-27 13:43:00,56.7,56.7,29.17,SW,224,8.0,9.0,100,0.05,,---,1.64,VWS V14.01,2013-11-27 18:43:00,
2013-11-27 13:44:00,56.7,56.7,29.18,SW,229,2.0,9.0,100,0.05,,---,1.64,VWS V14.01,2013-11-27 18:44:00,
2013-11-27 13:45:00,56.7,56.7,29.18,WSW,237,4.0,5.0,100,0.02,,---,1.64,VWS V14.01,2013-11-27 18:45:00,
2013-11-27 13:46:00,56.7,56.7,29.18,WSW,244,1.0,6.0,100,0.02,,---,1.64,VWS V14.01,2013-11-27 18:46:00,
2013-11-27 13:47:00,56.7,56.7,29.18,WSW,244,0.0,6.0,100,0.02,,---,1.64,VWS V14.01,2013-11-27 18:47:00,
2013-11-27 13:48:00,56.7,56.7,29.18,SSW,198,6.0,6.0,100,0.02,,---,1.64,VWS V14.01,2013-11-27 18:48:00,
2013-11-27 13:50:00,56.7,56.7,29.18,SW,229,0.0,6.0,100,0.03,,---,1.65,VWS V14.01,2013-11-27 18:50:00,
2013-11-27 13:51:00,56.7,56.7,29.18,WSW,257,4.0,6.0,100,0.03,,---,1.65,VWS V14.01,2013-11-27 18:51:00,
2013-11-27 13:52:00,56.7,56.7,29.18,West,275,4.0,6.0,100,0.03,,---,1.65,VWS V14.01,2013-11-27 18:52:00,
2013-11-27 13:53:00,56.7,56.7,29.18,WSW,237,0.0,6.0,100,0.03,,---,1.65,VWS V14.01,2013-11-27 18:53:00,
2013-11-27 13:55:00,56.7,56.7,29.18,WSW,254,0.0,6.0,100,0.04,,---,1.66,VWS V14.01,2013-11-27 18:55:00,
2013-11-27 13:56:00,56.7,56.7,29.18,WSW,254,0.0,6.0,100,0.04,,---,1.66,VWS V14.01,2013-11-27 18:56:00,
2013-11-27 13:57:00,56.7,56.7,29.18,WSW,254,0.0,6.0,100,0.04,,---,1.66,VWS V14.01,2013-11-27 18:57:00,
2013-11-27 13:58:00,56.9,56.9,29.18,WSW,254,0.0,6.0,100,0.04,,---,1.66,VWS V14.01,2013-11-27 18:58:00,
2013-11-27 14:00:00,56.9,56.9,29.16,WSW,246,2.0,7.0,100,0.03,,---,1.66,VWS V14.01,2013-11-27 19:00:00,
2013-11-27 14:01:00,56.9,56.9,29.16,West,275,4.0,7.0,100,0.03,,---,1.66,VWS V14.01,2013-11-27 19:01:00,
2013-11-27 14:02:00,56.9,56.9,29.16,WNW,284,2.0,7.0,100,0.04,,---,1.67,VWS V14.01,2013-11-27 19:02:00,
2013-11-27 14:04:00,57.0,57.0,29.16,WSW,258,0.0,7.0,100,0.04,,---,1.67,VWS V14.01,2013-11-27 19:04:00,
2013-11-27 14:06:00,57.0,57.0,29.16,WSW,240,1.0,7.0,100,0.04,,---,1.67,VWS V14.01,2013-11-27 19:06:00,
2013-11-27 14:07:00,57.0,57.0,29.16,SW,232,0.0,7.0,100,0.04,,---,1.67,VWS V14.01,2013-11-27 19:07:00,
2013-11-27 14:09:00,57.0,57.0,29.16,West,260,1.0,7.0,100,0.04,,---,1.67,VWS V14.01,2013-11-27 19:09:00,
2013-11-27 14:11:00,57.0,57.0,29.16,West,260,1.0,7.0,100,0.04,,---,1.67,VWS V14.01,2013-11-27 19:11:00,
2013-11-27 14:12:00,57.2,57.2,29.16,West,277,0.0,7.0,100,0.04,,---,1.67,VWS V14.01,2013-11-27 19:12:00,
2013-11-27 14:13:00,57.2,57.2,29.16,West,268,5.0,7.0,100,0.04,,---,1.67,VWS V14.01,2013-11-27 19:13:00,
2013-11-27 14:14:00,57.2,57.2,29.19,WSW,243,2.0,7.0,100,0.05,,---,1.68,VWS V14.01,2013-11-27 19:14:00,
2013-11-27 14:16:00,57.2,57.2,29.19,WSW,257,7.0,7.0,100,0.04,,---,1.68,VWS V14.01,2013-11-27 19:16:00,
2013-11-27 14:17:00,57.2,57.2,29.19,West,281,7.0,7.0,100,0.04,,---,1.68,VWS V14.01,2013-11-27 19:17:00,
2013-11-27 14:18:00,57.2,57.2,29.19,West,267,5.0,7.0,100,0.04,,---,1.68,VWS V14.01,2013-11-27 19:18:00,
2013-11-27 14:19:00,57.2,57.2,29.19,West,263,5.0,7.0,100,0.04,,---,1.68,VWS V14.01,2013-11-27 19:19:00,
2013-11-27 14:21:00,57.2,57.2,29.19,WNW,294,0.0,7.0,100,0.04,,---,1.68,VWS V14.01,2013-11-27 19:21:00,
2013-11-27 14:22:00,57.2,57.2,29.19,West,260,6.0,7.0,100,0.05,,---,1.69,VWS V14.01,2013-11-27 19:22:00,
2013-11-27 14:23:00,57.2,57.2,29.19,West,268,2.0,7.0,100,0.05,,---,1.69,VWS V14.01,2013-11-27 19:23:00,
2013-11-27 14:24:00,57.2,57.2,29.19,WSW,258,3.0,7.0,100,0.05,,---,1.69,VWS V14.01,2013-11-27 19:24:00,
2013-11-27 14:26:00,57.0,57.0,29.19,NW,322,3.0,7.0,100,0.05,,---,1.69,VWS V14.01,2013-11-27 19:26:00,
2013-11-27 14:27:00,57.0,57.0,29.19,NNW,333,2.0,7.0,100,0.05,,---,1.69,VWS V14.01,2013-11-27 19:27:00,
2013-11-27 14:29:00,56.3,56.3,29.16,NNW,333,4.0,7.0,100,0.05,,---,1.69,VWS V14.01,2013-11-27 19:29:00,
2013-11-27 14:31:00,55.1,55.1,29.16,North,0,5.0,7.0,100,0.06,,---,1.70,VWS V14.01,2013-11-27 19:31:00,
2013-11-27 14:32:00,55.0,55.0,29.16,NW,320,7.0,7.0,100,0.06,,---,1.70,VWS V14.01,2013-11-27 19:32:00,
2013-11-27 14:34:00,53.8,53.8,29.16,NNW,346,3.0,7.0,100,0.06,,---,1.70,VWS V14.01,2013-11-27 19:34:00,
2013-11-27 14:35:00,53.8,53.8,29.16,North,356,6.0,7.0,100,0.06,,---,1.70,VWS V14.01,2013-11-27 19:35:00,
2013-11-27 14:36:00,53.2,53.2,29.16,North,353,3.0,7.0,100,0.06,,---,1.70,VWS V14.01,2013-11-27 19:36:00,
2013-11-27 14:37:00,53.1,53.1,29.16,NW,313,3.0,7.0,100,0.06,,---,1.70,VWS V14.01,2013-11-27 19:37:00,
2013-11-27 14:38:00,52.9,52.9,29.16,NW,320,4.0,7.0,100,0.06,,---,1.70,VWS V14.01,2013-11-27 19:38:00,
2013-11-27 14:39:00,52.6,52.6,29.16,North,356,5.0,9.0,100,0.06,,---,1.70,VWS V14.01,2013-11-27 19:39:00,
2013-11-27 14:40:00,52.5,52.5,29.16,NW,318,3.0,9.0,100,0.06,,---,1.70,VWS V14.01,2013-11-27 19:40:00,
2013-11-27 14:42:00,52.3,52.3,29.16,NW,320,6.0,9.0,100,0.06,,---,1.70,VWS V14.01,2013-11-27 19:42:00,
2013-11-27 14:43:00,52.2,52.2,29.16,NW,319,2.0,9.0,100,0.06,,---,1.70,VWS V14.01,2013-11-27 19:43:00,
2013-11-27 14:44:00,52.2,52.2,29.19,NNW,343,3.0,9.0,100,0.06,,---,1.70,VWS V14.01,2013-11-27 19:44:00,
2013-11-27 14:46:00,52.0,52.0,29.19,North,356,6.0,6.0,100,0.06,,---,1.70,VWS V14.01,2013-11-27 19:46:00,
2013-11-27 14:47:00,52.0,52.0,29.19,NNW,343,2.0,6.0,100,0.06,,---,1.70,VWS V14.01,2013-11-27 19:47:00,
2013-11-27 14:48:00,52.0,52.0,29.19,NW,326,2.0,6.0,100,0.06,,---,1.70,VWS V14.01,2013-11-27 19:48:00,
2013-11-27 14:50:00,51.9,51.9,29.19,NNW,332,5.0,6.0,100,0.06,,---,1.70,VWS V14.01,2013-11-27 19:50:00,
2013-11-27 14:51:00,51.9,51.9,29.19,NNW,337,3.0,6.0,100,0.06,,---,1.70,VWS V14.01,2013-11-27 19:51:00,
2013-11-27 14:52:00,51.9,51.9,29.19,NNW,342,1.0,6.0,100,0.06,,---,1.70,VWS V14.01,2013-11-27 19:52:00,
2013-11-27 14:53:00,51.7,51.7,29.19,North,4,6.0,7.0,100,0.07,,---,1.71,VWS V14.01,2013-11-27 19:53:00,
2013-11-27 14:55:00,51.4,51.4,29.19,North,356,10.0,10.0,100,0.07,,---,1.71,VWS V14.01,2013-11-27 19:55:00,
2013-11-27 14:56:00,51.3,51.3,29.19,NW,325,8.0,10.0,100,0.07,,---,1.71,VWS V14.01,2013-11-27 19:56:00,
2013-11-27 14:57:00,51.0,51.0,29.19,NNW,333,7.0,10.0,100,0.07,,---,1.71,VWS V14.01,2013-11-27 19:57:00,
2013-11-27 14:58:00,51.0,51.0,29.19,NNW,342,6.0,10.0,100,0.07,,---,1.71,VWS V14.01,2013-11-27 19:58:00,
2013-11-27 15:01:00,50.7,50.7,29.19,NNW,340,5.0,8.0,100,0.05,,---,1.71,VWS V14.01,2013-11-27 20:01:00,
2013-11-27 15:02:00,50.5,50.5,29.19,NNW,328,1.0,8.0,100,0.05,,---,1.71,VWS V14.01,2013-11-27 20:02:00,
2013-11-27 15:03:00,50.5,50.5,29.19,North,357,2.0,8.0,100,0.05,,---,1.71,VWS V14.01,2013-11-27 20:03:00,
2013-11-27 15:04:00,50.5,50.5,29.19,NNW,335,5.0,8.0,100,0.05,,---,1.71,VWS V14.01,2013-11-27 20:04:00,
2013-11-27 15:06:00,50.2,50.2,29.19,NW,320,5.0,8.0,100,0.05,,---,1.71,VWS V14.01,2013-11-27 20:06:00,
2013-11-27 15:07:00,50.1,50.1,29.19,North,0,6.0,8.0,100,0.05,,---,1.71,VWS V14.01,2013-11-27 20:07:00,
2013-11-27 15:08:00,50.1,50.1,29.19,North,0,6.0,8.0,100,0.05,,---,1.71,VWS V14.01,2013-11-27 20:08:00,
2013-11-27 15:09:00,50.1,50.1,29.19,North,6,4.0,8.0,100,0.05,,---,1.71,VWS V14.01,2013-11-27 20:09:00,
2013-11-27 15:11:00,49.9,49.9,29.19,North,353,0.0,8.0,100,0.05,,---,1.71,VWS V14.01,2013-11-27 20:11:00,
2013-11-27 15:13:00,49.8,49.8,29.19,North,0,6.0,8.0,100,0.05,,---,1.71,VWS V14.01,2013-11-27 20:13:00,
2013-11-27 15:14:00,49.6,49.6,29.17,NNW,343,3.0,8.0,100,0.05,,---,1.71,VWS V14.01,2013-11-27 20:14:00,
2013-11-27 15:16:00,49.5,49.5,29.17,NNW,329,5.0,6.0,100,0.03,,---,1.71,VWS V14.01,2013-11-27 20:16:00,
2013-11-27 15:18:00,49.5,49.5,29.17,North,353,5.0,6.0,100,0.03,,---,1.71,VWS V14.01,2013-11-27 20:18:00,
2013-11-27 15:19:00,49.5,49.5,29.17,NW,319,2.0,6.0,100,0.03,,---,1.71,VWS V14.01,2013-11-27 20:19:00,
2013-11-27 15:21:00,49.5,49.5,29.17,NNW,339,0.0,6.0,100,0.03,,---,1.71,VWS V14.01,2013-11-27 20:21:00,
2013-11-27 15:23:00,49.4,49.4,29.17,NNW,340,2.0,6.0,100,0.03,,---,1.71,VWS V14.01,2013-11-27 20:23:00,
2013-11-27 15:24:00,49.4,49.4,29.17,WNW,298,2.0,6.0,100,0.03,,---,1.71,VWS V14.01,2013-11-27 20:24:00,
2013-11-27 15:26:00,49.4,49.4,29.17,North,350,0.0,6.0,100,0.03,,---,1.71,VWS V14.01,2013-11-27 20:26:00,
2013-11-27 15:28:00,49.4,49.4,29.17,North,357,1.0,6.0,100,0.03,,---,1.71,VWS V14.01,2013-11-27 20:28:00,
2013-11-27 15:29:00,49.4,49.4,29.18,North,356,0.0,6.0,100,0.03,,---,1.71,VWS V14.01,2013-11-27 20:29:00,
2013-11-27 15:31:00,49.2,49.2,29.18,North,353,2.0,3.0,100,0.02,,---,1.71,VWS V14.01,2013-11-27 20:31:00,
2013-11-27 15:33:00,49.2,49.2,29.18,NNW,337,3.0,5.0,100,0.02,,---,1.71,VWS V14.01,2013-11-27 20:33:00,
2013-11-27 15:34:00,49.1,49.1,29.18,NNW,337,3.0,5.0,100,0.02,,---,1.71,VWS V14.01,2013-11-27 20:34:00,
2013-11-27 15:37:00,48.9,48.9,29.18,NW,306,2.0,5.0,100,0.02,,---,1.71,VWS V14.01,2013-11-27 20:37:00,
2013-11-27 15:38:00,48.9,48.9,29.18,NNW,332,0.0,5.0,100,0.02,,---,1.71,VWS V14.01,2013-11-27 20:38:00,
2013-11-27 15:39:00,48.9,48.9,29.18,NNW,332,0.0,5.0,100,0.02,,---,1.71,VWS V14.01,2013-11-27 20:39:00,
2013-11-27 15:42:00,48.8,48.8,29.18,NNW,335,6.0,6.0,100,0.02,,---,1.71,VWS V14.01,2013-11-27 20:42:00,
2013-11-27 15:44:00,48.8,48.8,29.16,North,349,1.0,6.0,100,0.02,,---,1.71,VWS V14.01,2013-11-27 20:44:00,
2013-11-27 15:47:00,48.6,48.6,29.16,North,352,5.0,5.0,100,0.01,,---,1.71,VWS V14.01,2013-11-27 20:47:00,
2013-11-27 15:49:00,48.5,48.5,29.16,NNW,328,2.0,6.0,100,0.01,,---,1.71,VWS V14.01,2013-11-27 20:49:00,
2013-11-27 15:50:00,48.5,48.5,29.16,NNW,337,2.0,6.0,100,0.01,,---,1.71,VWS V14.01,2013-11-27 20:50:00,
2013-11-27 15:52:00,48.3,48.3,29.16,North,356,2.0,6.0,100,0.01,,---,1.71,VWS V14.01,2013-11-27 20:52:00,
2013-11-27 15:54:00,48.2,48.2,29.16,NNW,339,0.0,7.0,100,0.01,,---,1.71,VWS V14.01,2013-11-27 20:54:00,
2013-11-27 15:55:00,48.2,48.2,29.16,NW,313,3.0,7.0,100,0.01,,---,1.71,VWS V14.01,2013-11-27 20:55:00,
2013-11-27 15:57:00,48.0,48.0,29.16,North,350,3.0,7.0,100,0.01,,---,1.71,VWS V14.01,2013-11-27 20:57:00,
2013-11-27 15:58:00,48.0,48.0,29.16,North,0,3.0,7.0,100,0.01,,---,1.71,VWS V14.01,2013-11-27 20:58:00,
2013-11-27 15:59:00,47.9,47.9,29.17,North,359,7.0,7.0,100,0.01,,---,1.71,VWS V14.01,2013-11-27 20:59:00,
2013-11-27 16:00:00,47.7,47.7,29.17,NNW,342,6.0,8.0,100,0.00,,---,1.71,VWS V14.01,2013-11-27 21:00:00,
2013-11-27 16:02:00,47.6,47.6,29.17,North,10,6.0,8.0,100,0.00,,---,1.71,VWS V14.01,2013-11-27 21:02:00,
2013-11-27 16:03:00,47.4,47.4,29.17,North,352,0.0,8.0,100,0.00,,---,1.71,VWS V14.01,2013-11-27 21:03:00,
2013-11-27 16:04:00,47.4,47.4,29.17,North,0,4.0,8.0,100,0.00,,---,1.71,VWS V14.01,2013-11-27 21:04:00,
2013-11-27 16:05:00,47.4,47.4,29.17,North,350,6.0,8.0,100,0.00,,---,1.71,VWS V14.01,2013-11-27 21:05:00,
2013-11-27 16:06:00,47.3,47.3,29.17,NNW,344,2.0,8.0,100,0.00,,---,1.71,VWS V14.01,2013-11-27 21:06:00,
2013-11-27 16:07:00,47.3,47.3,29.17,North,0,6.0,8.0,100,0.00,,---,1.71,VWS V14.01,2013-11-27 21:07:00,
2013-11-27 16:08:00,47.0,47.0,29.17,North,0,0.0,8.0,100,0.00,,---,1.71,VWS V14.01,2013-11-27 21:08:00,
2013-11-27 16:09:00,47.0,47.0,29.17,North,354,1.0,8.0,100,0.00,,---,1.71,VWS V14.01,2013-11-27 21:09:00,
2013-11-27 16:10:00,47.0,47.0,29.17,North,10,3.0,8.0,100,0.00,,---,1.71,VWS V14.01,2013-11-27 21:10:00,
2013-11-27 16:11:00,46.7,46.7,29.17,NNW,340,3.0,8.0,100,0.00,,---,1.71,VWS V14.01,2013-11-27 21:11:00,
2013-11-27 16:13:00,46.5,46.5,29.17,North,0,7.0,8.0,100,0.00,,---,1.71,VWS V14.01,2013-11-27 21:13:00,
2013-11-27 16:14:00,46.4,46.4,29.16,North,356,6.0,8.0,100,0.00,,---,1.71,VWS V14.01,2013-11-27 21:14:00,
2013-11-27 16:15:00,46.4,46.4,29.16,North,7,3.0,3.0,100,0.00,,---,1.71,VWS V14.01,2013-11-27 21:15:00,
2013-11-27 16:16:00,46.2,46.2,29.16,North,0,0.0,5.0,100,0.00,,---,1.71,VWS V14.01,2013-11-27 21:16:00,
2013-11-27 16:19:00,46.2,46.2,29.16,North,352,0.0,5.0,100,0.00,,---,1.71,VWS V14.01,2013-11-27 21:19:00,
2013-11-27 16:20:00,46.1,46.1,29.16,North,359,4.0,5.0,100,0.01,,---,1.72,VWS V14.01,2013-11-27 21:20:00,
2013-11-27 16:21:00,46.1,46.1,29.16,NNW,347,5.0,5.0,100,0.01,,---,1.72,VWS V14.01,2013-11-27 21:21:00,
2013-11-27 16:24:00,46.0,46.0,29.16,NW,323,4.0,5.0,100,0.01,,---,1.72,VWS V14.01,2013-11-27 21:24:00,
2013-11-27 16:25:00,46.0,46.0,29.16,NW,323,2.0,5.0,100,0.01,,---,1.72,VWS V14.01,2013-11-27 21:25:00,
2013-11-27 16:26:00,46.0,46.0,29.16,North,359,5.0,10.0,100,0.01,,---,1.72,VWS V14.01,2013-11-27 21:26:00,
2013-11-27 16:29:00,45.8,45.8,29.18,NW,316,2.0,10.0,100,0.01,,---,1.72,VWS V14.01,2013-11-27 21:29:00,
2013-11-27 16:30:00,45.7,45.7,29.18,NW,323,3.0,5.0,100,0.01,,---,1.72,VWS V14.01,2013-11-27 21:30:00,
2013-11-27 16:31:00,45.7,45.7,29.18,NW,325,1.0,5.0,100,0.02,,---,1.73,VWS V14.01,2013-11-27 21:31:00,
2013-11-27 16:34:00,45.7,45.7,29.18,NNW,328,3.0,5.0,100,0.02,,---,1.73,VWS V14.01,2013-11-27 21:34:00,
2013-11-27 16:35:00,45.7,45.7,29.18,NW,319,5.0,6.0,100,0.02,,---,1.73,VWS V14.01,2013-11-27 21:35:00,
2013-11-27 16:36:00,45.5,45.5,29.18,NW,313,7.0,7.0,100,0.02,,---,1.73,VWS V14.01,2013-11-27 21:36:00,
2013-11-27 16:39:00,45.2,45.2,29.18,NW,326,2.0,7.0,100,0.03,,---,1.74,VWS V14.01,2013-11-27 21:39:00,
2013-11-27 16:40:00,45.1,45.1,29.18,NW,323,4.0,7.0,100,0.03,,---,1.74,VWS V14.01,2013-11-27 21:40:00,
2013-11-27 16:41:00,45.1,45.1,29.18,NNW,336,5.0,7.0,100,0.03,,---,1.74,VWS V14.01,2013-11-27 21:41:00,
2013-11-27 16:42:00,44.9,44.9,29.18,North,0,5.0,7.0,100,0.03,,---,1.74,VWS V14.01,2013-11-27 21:42:00,
2013-11-27 16:45:00,44.6,44.6,29.16,NNW,347,6.0,6.0,100,0.03,,---,1.74,VWS V14.01,2013-11-27 21:45:00,
2013-11-27 16:47:00,44.5,44.5,29.16,North,352,4.0,7.0,100,0.03,,---,1.74,VWS V14.01,2013-11-27 21:47:00,
2013-11-27 16:50:00,44.3,44.3,29.16,NNW,333,7.0,8.0,100,0.03,,---,1.74,VWS V14.01,2013-11-27 21:50:00,
2013-11-27 16:51:00,44.3,44.3,29.16,NNW,330,1.0,8.0,100,0.03,,---,1.74,VWS V14.01,2013-11-27 21:51:00,
2013-11-27 16:52:00,44.3,44.3,29.16,North,356,5.0,8.0,100,0.03,,---,1.74,VWS V14.01,2013-11-27 21:52:00,
2013-11-27 16:55:00,44.2,44.2,29.16,NNW,333,3.0,8.0,100,0.03,,---,1.74,VWS V14.01,2013-11-27 21:55:00,
2013-11-27 16:56:00,44.2,44.2,29.16,North,354,5.0,8.0,100,0.03,,---,1.74,VWS V14.01,2013-11-27 21:56:00,
2013-11-27 16:57:00,44.1,44.1,29.16,North,356,5.0,8.0,100,0.03,,---,1.74,VWS V14.01,2013-11-27 21:57:00,
2013-11-27 17:00:00,44.1,44.1,29.16,North,357,2.0,6.0,100,0.03,,---,1.74,VWS V14.01,2013-11-27 22:00:00,
2013-11-27 17:01:00,43.9,43.9,29.16,North,357,0.0,6.0,100,0.03,,---,1.74,VWS V14.01,2013-11-27 22:01:00,
2013-11-27 17:02:00,43.9,43.9,29.16,NW,323,5.0,6.0,100,0.03,,---,1.74,VWS V14.01,2013-11-27 22:02:00,
2013-11-27 17:03:00,43.9,43.9,29.16,North,349,7.0,7.0,100,0.03,,---,1.74,VWS V14.01,2013-11-27 22:03:00,
2013-11-27 17:05:00,43.9,43.9,29.16,NNW,340,7.0,7.0,100,0.03,,---,1.74,VWS V14.01,2013-11-27 22:05:00,
2013-11-27 17:06:00,43.9,43.9,29.16,NNW,335,0.0,7.0,100,0.03,,---,1.74,VWS V14.01,2013-11-27 22:06:00,
2013-11-27 17:07:00,43.9,43.9,29.16,NNW,335,0.0,7.0,100,0.03,,---,1.74,VWS V14.01,2013-11-27 22:07:00,
2013-11-27 17:08:00,43.9,43.9,29.16,NNW,335,0.0,7.0,100,0.03,,---,1.74,VWS V14.01,2013-11-27 22:08:00,
2013-11-27 17:10:00,43.8,43.8,29.16,North,0,6.0,8.0,100,0.03,,---,1.74,VWS V14.01,2013-11-27 22:10:00,
2013-11-27 17:11:00,43.8,43.8,29.16,NNW,335,5.0,8.0,100,0.03,,---,1.74,VWS V14.01,2013-11-27 22:11:00,
2013-11-27 17:12:00,43.8,43.8,29.16,NNW,336,5.0,8.0,100,0.03,,---,1.74,VWS V14.01,2013-11-27 22:12:00,
2013-11-27 17:13:00,43.8,43.8,29.16,NNW,342,5.0,8.0,100,0.03,,---,1.74,VWS V14.01,2013-11-27 22:13:00,
2013-11-27 17:15:00,43.6,43.3,29.18,North,350,4.0,4.0,99,0.03,,---,1.74,VWS V14.01,2013-11-27 22:15:00,
2013-11-27 17:16:00,43.6,43.3,29.18,WNW,292,5.0,5.0,99,0.04,,---,1.75,VWS V14.01,2013-11-27 22:16:00,
2013-11-27 17:17:00,43.6,43.3,29.18,NNW,342,3.0,5.0,99,0.04,,---,1.75,VWS V14.01,2013-11-27 22:17:00,
2013-11-27 17:18:00,43.6,43.3,29.18,NW,326,5.0,5.0,99,0.04,,---,1.75,VWS V14.01,2013-11-27 22:18:00,
2013-11-27 17:21:00,43.5,43.2,29.18,NNW,335,6.0,6.0,99,0.04,,---,1.75,VWS V14.01,2013-11-27 22:21:00,
2013-11-27 17:22:00,43.3,43.0,29.18,NW,326,4.0,6.0,99,0.04,,---,1.75,VWS V14.01,2013-11-27 22:22:00,
2013-11-27 17:23:00,43.3,43.0,29.18,NNW,328,5.0,6.0,99,0.04,,---,1.75,VWS V14.01,2013-11-27 22:23:00,
2013-11-27 17:26:00,43.3,43.0,29.18,NW,322,1.0,7.0,99,0.05,,---,1.76,VWS V14.01,2013-11-27 22:26:00,
2013-11-27 17:27:00,43.3,43.0,29.18,NW,322,5.0,7.0,99,0.05,,---,1.76,VWS V14.01,2013-11-27 22:27:00,
2013-11-27 17:28:00,43.3,43.0,29.18,NW,319,2.0,7.0,99,0.05,,---,1.76,VWS V14.01,2013-11-27 22:28:00,
2013-11-27 17:31:00,43.2,42.9,29.21,North,3,7.0,7.0,99,0.04,,---,1.76,VWS V14.01,2013-11-27 22:31:00,
2013-11-27 17:32:00,43.1,42.8,29.21,NNW,328,4.0,8.0,99,0.05,,---,1.77,VWS V14.01,2013-11-27 22:32:00,
2013-11-27 17:33:00,43.1,42.8,29.21,NW,306,7.0,8.0,99,0.05,,---,1.77,VWS V14.01,2013-11-27 22:33:00,
2013-11-27 17:36:00,42.9,42.6,29.21,NNW,337,1.0,8.0,99,0.05,,---,1.77,VWS V14.01,2013-11-27 22:36:00,
2013-11-27 17:37:00,42.9,42.6,29.21,NNW,336,1.0,8.0,99,0.06,,---,1.78,VWS V14.01,2013-11-27 22:37:00,
2013-11-27 17:38:00,42.9,42.6,29.21,WNW,301,2.0,8.0,99,0.06,,---,1.78,VWS V14.01,2013-11-27 22:38:00,
2013-11-27 17:41:00,42.9,42.9,29.21,NW,322,6.0,8.0,100,0.06,,---,1.78,VWS V14.01,2013-11-27 22:41:00,
2013-11-27 17:42:00,42.8,42.8,29.21,NNW,335,5.0,8.0,100,0.06,,---,1.78,VWS V14.01,2013-11-27 22:42:00,
2013-11-27 17:43:00,42.8,42.8,29.21,NW,313,2.0,8.0,100,0.06,,---,1.78,VWS V14.01,2013-11-27 22:43:00,
2013-11-27 17:44:00,42.8,42.8,29.19,WNW,298,2.0,8.0,100,0.06,,---,1.78,VWS V14.01,2013-11-27 22:44:00,
2013-11-27 17:46:00,42.6,42.6,29.19,NW,313,7.0,8.0,100,0.04,,---,1.78,VWS V14.01,2013-11-27 22:46:00,
2013-11-27 17:47:00,42.3,42.3,29.19,NNW,343,2.0,8.0,100,0.05,,---,1.79,VWS V14.01,2013-11-27 22:47:00,
2013-11-27 17:48:00,42.3,42.3,29.19,NW,316,6.0,10.0,100,0.05,,---,1.79,VWS V14.01,2013-11-27 22:48:00,
2013-11-27 17:49:00,42.2,42.2,29.19,NW,319,2.0,10.0,100,0.05,,---,1.79,VWS V14.01,2013-11-27 22:49:00,
2013-11-27 17:50:00,42.2,42.2,29.19,NW,320,4.0,10.0,100,0.05,,---,1.79,VWS V14.01,2013-11-27 22:50:00,
2013-11-27 17:51:00,42.1,42.1,29.19,NNW,333,9.0,10.0,100,0.05,,---,1.79,VWS V14.01,2013-11-27 22:51:00,
2013-11-27 17:52:00,41.9,41.9,29.19,NW,315,5.0,10.0,100,0.05,,---,1.79,VWS V14.01,2013-11-27 22:52:00,
2013-11-27 17:54:00,41.9,41.6,29.19,North,0,10.0,10.0,99,0.05,,---,1.79,VWS V14.01,2013-11-27 22:54:00,
2013-11-27 17:55:00,41.8,41.5,29.19,NNW,346,7.0,10.0,99,0.05,,---,1.79,VWS V14.01,2013-11-27 22:55:00,
2013-11-27 17:56:00,41.8,41.5,29.19,NNW,347,8.0,10.0,99,0.05,,---,1.79,VWS V14.01,2013-11-27 22:56:00,
2013-11-27 17:57:00,41.6,41.3,29.19,North,352,4.0,10.0,99,0.05,,---,1.79,VWS V14.01,2013-11-27 22:57:00,
2013-11-27 17:59:00,41.6,41.3,29.13,NNW,347,6.0,10.0,99,0.05,,---,1.79,VWS V14.01,2013-11-27 22:59:00,
2013-11-27 18:00:00,41.5,41.2,29.13,North,3,9.0,9.0,99,0.05,,---,1.79,VWS V14.01,2013-11-27 23:00:00,
2013-11-27 18:02:00,41.3,40.8,29.13,NNW,333,6.0,9.0,98,0.05,,---,1.79,VWS V14.01,2013-11-27 23:02:00,
2013-11-27 18:03:00,41.3,40.8,29.13,NW,325,7.0,9.0,98,0.05,,---,1.79,VWS V14.01,2013-11-27 23:03:00,
2013-11-27 18:04:00,41.3,40.8,29.13,ENE,59,7.0,9.0,98,0.05,,---,1.79,VWS V14.01,2013-11-27 23:04:00,
2013-11-27 18:05:00,41.2,40.7,29.13,North,4,6.0,9.0,98,0.05,,---,1.79,VWS V14.01,2013-11-27 23:05:00,
2013-11-27 18:07:00,41.2,40.7,29.13,NNW,335,5.0,9.0,98,0.05,,---,1.79,VWS V14.01,2013-11-27 23:07:00,
2013-11-27 18:08:00,41.2,40.7,29.13,NNW,347,6.0,9.0,98,0.05,,---,1.79,VWS V14.01,2013-11-27 23:08:00,
2013-11-27 18:09:00,41.1,40.6,29.13,North,0,3.0,9.0,98,0.05,,---,1.79,VWS V14.01,2013-11-27 23:09:00,
2013-11-27 18:11:00,41.1,40.6,29.13,North,350,5.0,9.0,98,0.05,,---,1.79,VWS V14.01,2013-11-27 23:11:00,
2013-11-27 18:12:00,41.1,40.6,29.13,NNW,339,4.0,9.0,98,0.05,,---,1.79,VWS V14.01,2013-11-27 23:12:00,
2013-11-27 18:13:00,41.1,40.6,29.13,North,0,5.0,9.0,98,0.05,,---,1.79,VWS V14.01,2013-11-27 23:13:00,
2013-11-27 18:14:00,41.1,40.6,29.16,North,0,5.0,9.0,98,0.05,,---,1.79,VWS V14.01,2013-11-27 23:14:00,
2013-11-27 18:15:00,41.1,40.6,29.16,North,359,8.0,9.0,98,0.05,,---,1.79,VWS V14.01,2013-11-27 23:15:00,
2013-11-27 18:16:00,40.9,40.4,29.16,North,357,3.0,8.0,98,0.05,,---,1.79,VWS V14.01,2013-11-27 23:16:00,
2013-11-27 18:17:00,40.9,40.4,29.16,North,354,6.0,8.0,98,0.05,,---,1.79,VWS V14.01,2013-11-27 23:17:00,
2013-11-27 18:18:00,40.9,40.4,29.16,NNW,340,2.0,12.0,98,0.05,,---,1.79,VWS V14.01,2013-11-27 23:18:00,
2013-11-27 18:19:00,40.9,40.4,29.16,NNW,347,3.0,12.0,98,0.05,,---,1.79,VWS V14.01,2013-11-27 23:19:00,
2013-11-27 18:20:00,40.9,40.4,29.16,NNE,27,3.0,12.0,98,0.05,,---,1.79,VWS V14.01,2013-11-27 23:20:00,
2013-11-27 18:21:00,40.9,40.1,29.16,North,0,6.0,12.0,97,0.05,,---,1.79,VWS V14.01,2013-11-27 23:21:00,
2013-11-27 18:22:00,40.9,40.1,29.16,North,349,7.0,12.0,97,0.05,,---,1.79,VWS V14.01,2013-11-27 23:22:00,
2013-11-27 18:23:00,40.9,40.1,29.16,NNW,333,8.0,12.0,97,0.05,,---,1.79,VWS V14.01,2013-11-27 23:23:00,
2013-11-27 18:24:00,40.9,40.1,29.16,NW,316,5.0,12.0,97,0.05,,---,1.79,VWS V14.01,2013-11-27 23:24:00,
2013-11-27 18:25:00,40.8,40.0,29.16,NNW,344,7.0,12.0,97,0.05,,---,1.79,VWS V14.01,2013-11-27 23:25:00,
2013-11-27 18:26:00,40.9,40.1,29.16,NNW,328,3.0,12.0,97,0.05,,---,1.79,VWS V14.01,2013-11-27 23:26:00,
2013-11-27 18:28:00,40.9,39.8,29.16,WNW,301,5.0,12.0,96,0.05,,---,1.79,VWS V14.01,2013-11-27 23:28:00,
2013-11-27 18:29:00,40.8,39.8,29.19,North,0,7.0,12.0,96,0.05,,---,1.79,VWS V14.01,2013-11-27 23:29:00,
2013-11-27 18:30:00,40.8,39.8,29.19,NNW,335,8.0,8.0,96,0.03,,---,1.79,VWS V14.01,2013-11-27 23:30:00,
2013-11-27 18:32:00,40.8,39.8,29.19,NNW,333,8.0,8.0,96,0.03,,---,1.79,VWS V14.01,2013-11-27 23:32:00,
2013-11-27 18:33:00,40.8,39.5,29.19,NW,326,6.0,8.0,95,0.03,,---,1.79,VWS V14.01,2013-11-27 23:33:00,
2013-11-27 18:34:00,40.8,39.5,29.19,NW,309,5.0,8.0,95,0.03,,---,1.79,VWS V14.01,2013-11-27 23:34:00,
2013-11-27 18:35:00,40.8,39.5,29.19,NNW,340,8.0,8.0,95,0.03,,---,1.79,VWS V14.01,2013-11-27 23:35:00,
2013-11-27 18:37:00,40.8,39.2,29.19,NW,316,10.0,10.0,94,0.03,,---,1.79,VWS V14.01,2013-11-27 23:37:00,
2013-11-27 18:38:00,40.8,39.2,29.19,NNW,340,7.0,10.0,94,0.03,,---,1.79,VWS V14.01,2013-11-27 23:38:00,
2013-11-27 18:40:00,40.8,39.2,29.19,North,0,5.0,10.0,94,0.03,,---,1.79,VWS V14.01,2013-11-27 23:40:00,
2013-11-27 18:42:00,40.8,39.2,29.19,NNW,335,6.0,10.0,94,0.03,,---,1.79,VWS V14.01,2013-11-27 23:42:00,
2013-11-27 18:43:00,40.8,39.2,29.19,NNW,330,2.0,10.0,94,0.03,,---,1.79,VWS V14.01,2013-11-27 23:43:00,
2013-11-27 18:44:00,40.8,39.2,29.22,NNW,330,2.0,10.0,94,0.03,,---,1.79,VWS V14.01,2013-11-27 23:44:00,
2013-11-27 18:45:00,40.8,39.2,29.22,NNW,330,3.0,5.0,94,0.01,,---,1.79,VWS V14.01,2013-11-27 23:45:00,
2013-11-27 18:47:00,40.8,39.2,29.22,NW,323,5.0,7.0,94,0.01,,---,1.79,VWS V14.01,2013-11-27 23:47:00,
2013-11-27 18:48:00,40.6,39.0,29.22,NW,312,4.0,11.0,94,0.01,,---,1.79,VWS V14.01,2013-11-27 23:48:00,
2013-11-27 18:49:00,40.6,39.0,29.22,NW,320,3.0,11.0,94,0.01,,---,1.79,VWS V14.01,2013-11-27 23:49:00,
2013-11-27 18:50:00,40.6,39.0,29.22,NNW,333,6.0,11.0,94,0.01,,---,1.79,VWS V14.01,2013-11-27 23:50:00,
2013-11-27 18:52:00,40.5,38.9,29.22,NW,319,2.0,11.0,94,0.01,,---,1.79,VWS V14.01,2013-11-27 23:52:00,
2013-11-27 18:53:00,40.5,38.9,29.22,NNW,333,3.0,11.0,94,0.01,,---,1.79,VWS V14.01,2013-11-27 23:53:00,
2013-11-27 18:55:00,40.5,38.9,29.22,WNW,296,8.0,11.0,94,0.01,,---,1.79,VWS V14.01,2013-11-27 23:55:00,
2013-11-27 18:57:00,40.3,38.4,29.22,WSW,237,7.0,11.0,93,0.01,,---,1.79,VWS V14.01,2013-11-27 23:57:00,
2013-11-27 18:58:00,40.2,38.3,29.22,West,278,7.0,11.0,93,0.01,,---,1.79,VWS V14.01,2013-11-27 23:58:00,
2013-11-27 18:59:00,40.2,38.3,29.25,WNW,298,10.0,13.0,93,0.02,,---,1.80,VWS V14.01,2013-11-27 23:59:00,
2013-11-27 19:00:00,40.2,38.3,29.25,WNW,296,7.0,8.0,93,0.01,,---,1.80,VWS V14.01,2013-11-28 00:00:00,
2013-11-27 19:01:00,40.2,38.3,29.25,WNW,294,19.0,19.0,93,0.01,,---,1.80,VWS V14.01,2013-11-28 00:01:00,
2013-11-27 19:02:00,40.1,38.0,29.25,WNW,291,13.0,19.0,92,0.01,,---,1.80,VWS V14.01,2013-11-28 00:02:00,
2013-11-27 19:03:00,40.1,38.0,29.25,North,0,5.0,19.0,92,0.01,,---,1.80,VWS V14.01,2013-11-28 00:03:00,
2013-11-27 19:04:00,40.1,37.7,29.25,WNW,295,14.0,19.0,91,0.01,,---,1.80,VWS V14.01,2013-11-28 00:04:00,
2013-11-27 19:05:00,39.9,37.2,29.25,NW,305,6.0,19.0,90,0.01,,---,1.80,VWS V14.01,2013-11-28 00:05:00,
2013-11-27 19:06:00,39.9,37.2,29.25,NW,318,3.0,19.0,90,0.01,,---,1.80,VWS V14.01,2013-11-28 00:06:00,
2013-11-27 19:08:00,39.8,37.1,29.25,WNW,291,7.0,19.0,90,0.01,,---,1.80,VWS V14.01,2013-11-28 00:08:00,
2013-11-27 19:09:00,39.6,37.2,29.25,NW,316,6.0,19.0,91,0.02,,---,1.81,VWS V14.01,2013-11-28 00:09:00,
2013-11-27 19:10:00,39.5,37.1,29.25,North,357,2.0,19.0,91,0.02,,---,1.81,VWS V14.01,2013-11-28 00:10:00,
2013-11-27 19:11:00,39.5,37.1,29.25,WNW,295,7.0,19.0,91,0.02,,---,1.81,VWS V14.01,2013-11-28 00:11:00,
2013-11-27 19:13:00,39.3,36.9,29.25,NW,311,10.0,19.0,91,0.02,,---,1.81,VWS V14.01,2013-11-28 00:13:00,
2013-11-27 19:14:00,39.2,37.1,29.27,NW,309,5.0,19.0,92,0.02,,---,1.81,VWS V14.01,2013-11-28 00:14:00,
2013-11-27 19:15:00,39.2,37.1,29.27,NW,318,8.0,12.0,92,0.03,,---,1.82,VWS V14.01,2013-11-28 00:15:00,
2013-11-27 19:16:00,39.2,37.1,29.27,NW,318,7.0,12.0,92,0.03,,---,1.82,VWS V14.01,2013-11-28 00:16:00,
2013-11-27 19:18:00,39.1,37.0,29.27,NW,311,9.0,12.0,92,0.04,,---,1.83,VWS V14.01,2013-11-28 00:18:00,
2013-11-27 19:19:00,38.9,36.8,29.27,West,277,8.0,12.0,92,0.04,,---,1.83,VWS V14.01,2013-11-28 00:19:00,
2013-11-27 19:21:00,38.9,36.8,29.27,NW,309,2.0,12.0,92,0.04,,---,1.83,VWS V14.01,2013-11-28 00:21:00,
2013-11-27 19:23:00,38.9,36.8,29.27,NW,316,5.0,12.0,92,0.05,,---,1.84,VWS V14.01,2013-11-28 00:23:00,
2013-11-27 19:24:00,38.9,36.8,29.27,NW,308,3.0,12.0,92,0.05,,---,1.84,VWS V14.01,2013-11-28 00:24:00,
2013-11-27 19:26:00,38.8,37.0,29.27,WNW,284,4.0,13.0,93,0.05,,---,1.84,VWS V14.01,2013-11-28 00:26:00,
2013-11-27 19:28:00,38.9,37.0,29.27,NNW,336,6.0,13.0,93,0.05,,---,1.84,VWS V14.01,2013-11-28 00:28:00,
2013-11-27 19:29:00,38.9,37.0,29.29,WNW,288,6.0,13.0,93,0.05,,---,1.84,VWS V14.01,2013-11-28 00:29:00,
2013-11-27 19:30:00,38.9,37.0,29.29,NW,311,8.0,8.0,93,0.05,,---,1.84,VWS V14.01,2013-11-28 00:30:00,
2013-11-27 19:31:00,38.9,37.0,29.29,WNW,292,4.0,9.0,93,0.05,,---,1.84,VWS V14.01,2013-11-28 00:31:00,
2013-11-27 19:33:00,38.9,37.0,29.29,West,274,7.0,9.0,93,0.05,,---,1.84,VWS V14.01,2013-11-28 00:33:00,
2013-11-27 19:34:00,38.9,37.3,29.29,WNW,287,11.0,11.0,94,0.05,,---,1.84,VWS V14.01,2013-11-28 00:34:00,
2013-11-27 19:35:00,38.9,37.3,29.29,NW,323,3.0,11.0,94,0.05,,---,1.84,VWS V14.01,2013-11-28 00:35:00,
2013-11-27 19:36:00,38.9,37.3,29.29,WNW,301,2.0,11.0,94,0.05,,---,1.84,VWS V14.01,2013-11-28 00:36:00,
2013-11-27 19:38:00,38.9,37.3,29.29,NW,315,2.0,11.0,94,0.05,,---,1.84,VWS V14.01,2013-11-28 00:38:00,
2013-11-27 19:39:00,38.9,37.3,29.29,NW,306,5.0,11.0,94,0.05,,---,1.84,VWS V14.01,2013-11-28 00:39:00,
2013-11-27 19:40:00,38.8,37.2,29.29,NW,305,4.0,11.0,94,0.05,,---,1.84,VWS V14.01,2013-11-28 00:40:00,
2013-11-27 19:41:00,38.8,37.2,29.29,NW,322,3.0,11.0,94,0.05,,---,1.84,VWS V14.01,2013-11-28 00:41:00,
2013-11-27 19:42:00,38.8,37.2,29.29,WNW,294,7.0,11.0,94,0.05,,---,1.84,VWS V14.01,2013-11-28 00:42:00,
2013-11-27 19:43:00,38.8,37.2,29.29,WNW,291,9.0,11.0,94,0.05,,---,1.84,VWS V14.01,2013-11-28 00:43:00,
2013-11-27 19:44:00,38.8,37.2,29.30,NNW,329,3.0,11.0,94,0.05,,---,1.84,VWS V14.01,2013-11-28 00:44:00,
2013-11-27 19:46:00,38.8,37.2,29.30,West,278,7.0,7.0,94,0.05,,---,1.84,VWS V14.01,2013-11-28 00:46:00,
2013-11-27 19:47:00,38.8,37.2,29.30,NW,325,5.0,10.0,94,0.05,,---,1.84,VWS V14.01,2013-11-28 00:47:00,
2013-11-27 19:48:00,38.6,37.0,29.30,NW,308,5.0,10.0,94,0.05,,---,1.84,VWS V14.01,2013-11-28 00:48:00,
2013-11-27 19:49:00,38.6,37.0,29.30,WNW,302,3.0,10.0,94,0.05,,---,1.84,VWS V14.01,2013-11-28 00:49:00,
2013-11-27 19:51:00,38.6,37.0,29.30,West,281,7.0,11.0,94,0.05,,---,1.84,VWS V14.01,2013-11-28 00:51:00,
2013-11-27 19:52:00,38.6,36.8,29.30,WNW,299,7.0,11.0,93,0.05,,---,1.84,VWS V14.01,2013-11-28 00:52:00,
2013-11-27 19:53:00,38.8,37.0,29.30,WNW,299,7.0,12.0,93,0.05,,---,1.84,VWS V14.01,2013-11-28 00:53:00,
2013-11-27 19:54:00,38.8,37.0,29.30,NW,320,5.0,12.0,93,0.05,,---,1.84,VWS V14.01,2013-11-28 00:54:00,
2013-11-27 19:56:00,38.8,36.7,29.30,WNW,296,6.0,12.0,92,0.05,,---,1.84,VWS V14.01,2013-11-28 00:56:00,
2013-11-27 19:57:00,38.8,36.7,29.30,NW,315,3.0,12.0,92,0.05,,---,1.84,VWS V14.01,2013-11-28 00:57:00,
2013-11-27 19:58:00,38.6,36.5,29.30,NNW,328,7.0,12.0,92,0.05,,---,1.84,VWS V14.01,2013-11-28 00:58:00,
2013-11-27 19:59:00,38.6,36.5,29.30,NNW,337,8.0,12.0,92,0.05,,---,1.84,VWS V14.01,2013-11-28 00:59:00,
2013-11-27 20:01:00,38.6,36.5,29.30,WNW,294,4.0,7.0,92,0.04,,---,1.84,VWS V14.01,2013-11-28 01:01:00,
2013-11-27 20:02:00,38.6,36.5,29.30,NW,305,5.0,7.0,92,0.04,,---,1.84,VWS V14.01,2013-11-28 01:02:00,
2013-11-27 20:03:00,38.6,36.5,29.30,West,275,2.0,8.0,92,0.04,,---,1.84,VWS V14.01,2013-11-28 01:03:00,
2013-11-27 20:04:00,38.6,36.5,29.30,NW,322,6.0,8.0,92,0.04,,---,1.84,VWS V14.01,2013-11-28 01:04:00,
2013-11-27 20:06:00,38.6,36.5,29.30,NW,311,7.0,12.0,92,0.04,,---,1.84,VWS V14.01,2013-11-28 01:06:00,
2013-11-27 20:07:00,38.6,36.5,29.30,NNW,335,6.0,12.0,92,0.04,,---,1.84,VWS V14.01,2013-11-28 01:07:00,
2013-11-27 20:09:00,38.6,36.2,29.30,West,268,17.0,18.0,91,0.04,,---,1.84,VWS V14.01,2013-11-28 01:09:00,
2013-11-27 20:11:00,38.6,36.2,29.30,WNW,301,6.0,18.0,91,0.04,,---,1.84,VWS V14.01,2013-11-28 01:11:00,
2013-11-27 20:12:00,38.6,35.9,29.30,NW,325,4.0,18.0,90,0.04,,---,1.84,VWS V14.01,2013-11-28 01:12:00,
2013-11-27 20:14:00,38.6,35.9,29.31,WNW,295,5.0,18.0,90,0.04,,---,1.84,VWS V14.01,2013-11-28 01:14:00,
2013-11-27 20:17:00,38.6,35.9,29.31,NW,325,3.0,6.0,90,0.03,,---,1.84,VWS V14.01,2013-11-28 01:17:00,
2013-11-27 20:18:00,38.6,35.9,29.31,WNW,296,3.0,6.0,90,0.03,,---,1.84,VWS V14.01,2013-11-28 01:18:00,
2013-11-27 20:19:00,38.6,35.6,29.31,NW,312,5.0,6.0,89,0.03,,---,1.84,VWS V14.01,2013-11-28 01:19:00,
2013-11-27 20:22:00,38.6,35.9,29.31,WNW,294,8.0,12.0,90,0.03,,---,1.84,VWS V14.01,2013-11-28 01:22:00,
2013-11-27 20:23:00,38.5,35.8,29.31,WNW,285,7.0,12.0,90,0.03,,---,1.84,VWS V14.01,2013-11-28 01:23:00,
2013-11-27 20:24:00,38.5,35.8,29.31,NW,305,3.0,12.0,90,0.03,,---,1.84,VWS V14.01,2013-11-28 01:24:00,
2013-11-27 20:27:00,38.5,35.5,29.31,NW,322,5.0,14.0,89,0.03,,---,1.84,VWS V14.01,2013-11-28 01:27:00,
2013-11-27 20:28:00,38.5,35.5,29.31,NNW,333,7.0,14.0,89,0.03,,---,1.84,VWS V14.01,2013-11-28 01:28:00,
2013-11-27 20:29:00,38.5,35.5,29.31,WNW,288,8.0,14.0,89,0.03,,---,1.84,VWS V14.01,2013-11-28 01:29:00,
2013-11-27 20:32:00,38.5,35.0,29.31,NNW,335,7.0,12.0,87,0.00,,---,1.84,VWS V14.01,2013-11-28 01:32:00,
2013-11-27 20:33:00,38.5,35.0,29.31,NNW,335,7.0,12.0,87,0.00,,---,1.84,VWS V14.01,2013-11-28 01:33:00,
2013-11-27 20:34:00,38.5,34.7,29.31,NW,305,7.0,12.0,86,0.00,,---,1.84,VWS V14.01,2013-11-28 01:34:00,
2013-11-27 20:35:00,38.3,34.5,29.31,WNW,299,6.0,12.0,86,0.00,,---,1.84,VWS V14.01,2013-11-28 01:35:00,
2013-11-27 20:37:00,38.3,34.2,29.31,NW,322,5.0,12.0,85,0.00,,---,1.84,VWS V14.01,2013-11-28 01:37:00,
2013-11-27 20:38:00,38.3,34.2,29.31,NW,322,5.0,12.0,85,0.00,,---,1.84,VWS V14.01,2013-11-28 01:38:00,
2013-11-27 20:39:00,38.3,34.2,29.31,NW,316,7.0,12.0,85,0.00,,---,1.84,VWS V14.01,2013-11-28 01:39:00,
2013-11-27 20:40:00,38.3,34.2,29.31,WNW,299,10.0,12.0,85,0.00,,---,1.84,VWS V14.01,2013-11-28 01:40:00,
2013-11-27 20:43:00,38.2,33.5,29.31,NW,313,4.0,12.0,83,0.00,,---,1.84,VWS V14.01,2013-11-28 01:43:00,
2013-11-27 20:45:00,38.2,33.2,29.31,NW,318,6.0,7.0,82,0.00,,---,1.84,VWS V14.01,2013-11-28 01:45:00,
2013-11-27 20:48:00,38.2,32.9,29.31,NNW,343,3.0,10.0,81,0.00,,---,1.84,VWS V14.01,2013-11-28 01:48:00,
2013-11-27 20:50:00,38.2,32.9,29.31,WNW,298,7.0,10.0,81,0.00,,---,1.84,VWS V14.01,2013-11-28 01:50:00,
2013-11-27 20:53:00,38.2,32.6,29.31,NW,308,5.0,10.0,80,0.00,,---,1.84,VWS V14.01,2013-11-28 01:53:00,
2013-11-27 20:54:00,38.2,32.6,29.31,WNW,299,8.0,10.0,80,0.00,,---,1.84,VWS V14.01,2013-11-28 01:54:00,
2013-11-27 20:55:00,38.2,32.6,29.31,NW,316,5.0,10.0,80,0.00,,---,1.84,VWS V14.01,2013-11-28 01:55:00,
2013-11-27 20:58:00,38.2,32.3,29.31,WNW,299,6.0,13.0,79,0.00,,---,1.84,VWS V14.01,2013-11-28 01:58:00,
2013-11-27 20:59:00,38.2,32.3,29.33,NNW,346,2.0,13.0,79,0.00,,---,1.84,VWS V14.01,2013-11-28 01:59:00,
2013-11-27 21:00:00,38.2,32.3,29.33,NNW,335,7.0,7.0,79,0.00,,---,1.84,VWS V14.01,2013-11-28 02:00:00,
2013-11-27 21:03:00,38.2,32.3,29.33,NW,312,2.0,7.0,79,0.00,,---,1.84,VWS V14.01,2013-11-28 02:03:00,
2013-11-27 21:04:00,38.2,32.3,29.33,NW,315,5.0,7.0,79,0.00,,---,1.84,VWS V14.01,2013-11-28 02:04:00,
2013-11-27 21:05:00,38.2,32.3,29.33,NW,326,2.0,7.0,79,0.00,,---,1.84,VWS V14.01,2013-11-28 02:05:00,
2013-11-27 21:08:00,38.2,32.3,29.33,WNW,289,6.0,7.0,79,0.00,,---,1.84,VWS V14.01,2013-11-28 02:08:00,
2013-11-27 21:09:00,38.2,32.3,29.33,NW,322,6.0,7.0,79,0.00,,---,1.84,VWS V14.01,2013-11-28 02:09:00,
2013-11-27 21:10:00,38.0,32.1,29.33,NW,323,3.0,8.0,79,0.00,,---,1.84,VWS V14.01,2013-11-28 02:10:00,
2013-11-27 21:13:00,38.0,32.1,29.33,NW,322,2.0,11.0,79,0.00,,---,1.84,VWS V14.01,2013-11-28 02:13:00,
2013-11-27 21:14:00,38.0,32.1,29.33,NW,322,2.0,11.0,79,0.00,,---,1.84,VWS V14.01,2013-11-28 02:14:00,
2013-11-27 21:15:00,38.0,32.1,29.33,WNW,301,6.0,6.0,79,0.00,,---,1.84,VWS V14.01,2013-11-28 02:15:00,
2013-11-27 21:18:00,38.0,31.8,29.33,NW,319,6.0,8.0,78,0.00,,---,1.84,VWS V14.01,2013-11-28 02:18:00,
2013-11-27 21:19:00,38.0,31.4,29.33,NW,318,5.0,8.0,77,0.00,,---,1.84,VWS V14.01,2013-11-28 02:19:00,
2013-11-27 21:20:00,38.0,31.4,29.33,NW,325,5.0,8.0,77,0.00,,---,1.84,VWS V14.01,2013-11-28 02:20:00,
2013-11-27 21:23:00,38.0,31.4,29.33,NW,318,6.0,8.0,77,0.00,,---,1.84,VWS V14.01,2013-11-28 02:23:00,
2013-11-27 21:24:00,38.0,31.1,29.33,NW,320,0.0,8.0,76,0.00,,---,1.84,VWS V14.01,2013-11-28 02:24:00,
2013-11-27 21:25:00,38.0,31.1,29.33,NW,304,6.0,8.0,76,0.00,,---,1.84,VWS V14.01,2013-11-28 02:25:00,
2013-11-27 21:28:00,38.0,31.1,29.33,WNW,288,5.0,12.0,76,0.00,,---,1.84,VWS V14.01,2013-11-28 02:28:00,
2013-11-27 21:29:00,38.0,31.1,29.34,NW,323,5.0,12.0,76,0.00,,---,1.84,VWS V14.01,2013-11-28 02:29:00,
2013-11-27 21:30:00,38.0,31.1,29.34,West,271,6.0,11.0,76,0.00,,---,1.84,VWS V14.01,2013-11-28 02:30:00,
2013-11-27 21:31:00,38.0,31.1,29.34,West,271,6.0,11.0,76,0.00,,---,1.84,VWS V14.01,2013-11-28 02:31:00,
2013-11-27 21:33:00,38.0,30.8,29.34,WNW,289,7.0,12.0,75,0.00,,---,1.84,VWS V14.01,2013-11-28 02:33:00,
2013-11-27 21:34:00,38.2,31.0,29.34,West,263,8.0,12.0,75,0.00,,---,1.84,VWS V14.01,2013-11-28 02:34:00,
2013-11-27 21:35:00,38.0,30.8,29.34,WNW,294,4.0,12.0,75,0.00,,---,1.84,VWS V14.01,2013-11-28 02:35:00,
2013-11-27 21:36:00,38.0,30.8,29.34,NW,306,8.0,12.0,75,0.00,,---,1.84,VWS V14.01,2013-11-28 02:36:00,
2013-11-27 21:38:00,38.2,31.0,29.34,WNW,296,9.0,12.0,75,0.00,,---,1.84,VWS V14.01,2013-11-28 02:38:00,
2013-11-27 21:39:00,38.2,31.0,29.34,NW,313,5.0,12.0,75,0.00,,---,1.84,VWS V14.01,2013-11-28 02:39:00,
2013-11-27 21:40:00,38.2,31.0,29.34,NW,312,4.0,12.0,75,0.00,,---,1.84,VWS V14.01,2013-11-28 02:40:00,
2013-11-27 21:41:00,38.2,30.7,29.34,WNW,294,2.0,12.0,74,0.00,,---,1.84,VWS V14.01,2013-11-28 02:41:00,
2013-11-27 21:42:00,38.2,30.7,29.34,WNW,284,9.0,12.0,74,0.00,,---,1.84,VWS V14.01,2013-11-28 02:42:00,
2013-11-27 21:43:00,38.2,30.7,29.34,WNW,298,6.0,12.0,74,0.00,,---,1.84,VWS V14.01,2013-11-28 02:43:00,
2013-11-27 21:45:00,38.2,30.7,29.34,NNW,328,6.0,8.0,74,0.00,,---,1.84,VWS V14.01,2013-11-28 02:45:00,
2013-11-27 21:46:00,38.2,30.7,29.34,NW,306,5.0,8.0,74,0.00,,---,1.84,VWS V14.01,2013-11-28 02:46:00,
2013-11-27 21:47:00,38.2,30.7,29.34,NW,315,7.0,8.0,74,0.00,,---,1.84,VWS V14.01,2013-11-28 02:47:00,
2013-11-27 21:48:00,38.2,30.3,29.34,NW,313,8.0,9.0,73,0.00,,---,1.84,VWS V14.01,2013-11-28 02:48:00,
2013-11-27 21:50:00,38.2,30.3,29.34,WNW,291,3.0,9.0,73,0.00,,---,1.84,VWS V14.01,2013-11-28 02:50:00,
2013-11-27 21:51:00,38.2,30.3,29.34,WNW,289,2.0,9.0,73,0.00,,---,1.84,VWS V14.01,2013-11-28 02:51:00,
2013-11-27 21:52:00,38.2,30.3,29.34,NW,322,3.0,9.0,73,0.00,,---,1.84,VWS V14.01,2013-11-28 02:52:00,
2013-11-27 21:53:00,38.2,30.3,29.34,WNW,284,5.0,9.0,73,0.00,,---,1.84,VWS V14.01,2013-11-28 02:53:00,
2013-11-27 21:55:00,38.2,30.0,29.34,NW,306,5.0,9.0,72,0.00,,---,1.84,VWS V14.01,2013-11-28 02:55:00,
2013-11-27 21:56:00,38.3,30.1,29.34,West,274,5.0,9.0,72,0.00,,---,1.84,VWS V14.01,2013-11-28 02:56:00,
2013-11-27 21:57:00,38.3,30.1,29.34,West,274,10.0,10.0,72,0.00,,---,1.84,VWS V14.01,2013-11-28 02:57:00,
2013-11-27 21:58:00,38.3,29.7,29.34,West,263,11.0,11.0,71,0.00,,---,1.84,VWS V14.01,2013-11-28 02:58:00,
2013-11-27 22:00:00,38.3,29.7,29.37,NW,304,8.0,8.0,71,0.00,,---,1.84,VWS V14.01,2013-11-28 03:00:00,
2013-11-27 22:01:00,38.3,29.0,29.37,West,263,3.0,13.0,69,0.00,,---,1.84,VWS V14.01,2013-11-28 03:01:00,
2013-11-27 22:02:00,38.5,29.2,29.37,NW,305,5.0,13.0,69,0.00,,---,1.84,VWS V14.01,2013-11-28 03:02:00,
2013-11-27 22:03:00,38.5,29.2,29.37,NW,326,6.0,13.0,69,0.00,,---,1.84,VWS V14.01,2013-11-28 03:03:00,
2013-11-27 22:05:00,38.5,28.9,29.37,WNW,294,10.0,13.0,68,0.00,,---,1.84,VWS V14.01,2013-11-28 03:05:00,
2013-11-27 22:06:00,38.5,28.9,29.37,NW,320,2.0,13.0,68,0.00,,---,1.84,VWS V14.01,2013-11-28 03:06:00,
2013-11-27 22:07:00,38.5,28.9,29.37,WSW,258,6.0,13.0,68,0.00,,---,1.84,VWS V14.01,2013-11-28 03:07:00,
2013-11-27 22:08:00,38.5,28.9,29.37,WNW,289,4.0,13.0,68,0.00,,---,1.84,VWS V14.01,2013-11-28 03:08:00,
2013-11-27 22:10:00,38.5,28.9,29.37,NW,306,9.0,13.0,68,0.00,,---,1.84,VWS V14.01,2013-11-28 03:10:00,
2013-11-27 22:11:00,38.5,28.5,29.37,NW,313,3.0,13.0,67,0.00,,---,1.84,VWS V14.01,2013-11-28 03:11:00,
2013-11-27 22:12:00,38.5,28.5,29.37,NW,305,7.0,13.0,67,0.00,,---,1.84,VWS V14.01,2013-11-28 03:12:00,
2013-11-27 22:13:00,38.5,28.5,29.37,WNW,288,5.0,13.0,67,0.00,,---,1.84,VWS V14.01,2013-11-28 03:13:00,
2013-11-27 22:14:00,38.5,28.5,29.38,WNW,298,3.0,13.0,67,0.00,,---,1.84,VWS V14.01,2013-11-28 03:14:00,
2013-11-27 22:16:00,38.3,28.3,29.38,NW,306,6.0,7.0,67,0.00,,---,1.84,VWS V14.01,2013-11-28 03:16:00,
2013-11-27 22:17:00,38.3,28.3,29.38,WNW,295,6.0,7.0,67,0.00,,---,1.84,VWS V14.01,2013-11-28 03:17:00,
2013-11-27 22:18:00,38.3,28.3,29.38,NW,313,3.0,7.0,67,0.00,,---,1.84,VWS V14.01,2013-11-28 03:18:00,
2013-11-27 22:19:00,38.3,28.3,29.38,WNW,302,5.0,7.0,67,0.00,,---,1.84,VWS V14.01,2013-11-28 03:19:00,
2013-11-27 22:21:00,38.3,28.0,29.38,NW,322,5.0,7.0,66,0.00,,---,1.84,VWS V14.01,2013-11-28 03:21:00,
2013-11-27 22:22:00,38.3,27.6,29.38,West,277,5.0,10.0,65,0.00,,---,1.84,VWS V14.01,2013-11-28 03:22:00,
2013-11-27 22:23:00,38.3,27.6,29.38,NW,309,2.0,10.0,65,0.00,,---,1.84,VWS V14.01,2013-11-28 03:23:00,
2013-11-27 22:24:00,38.3,27.6,29.38,WNW,299,8.0,10.0,65,0.00,,---,1.84,VWS V14.01,2013-11-28 03:24:00,
2013-11-27 22:27:00,38.3,27.6,29.38,West,275,6.0,10.0,65,0.00,,---,1.84,VWS V14.01,2013-11-28 03:27:00,
2013-11-27 22:28:00,38.3,27.6,29.38,West,280,5.0,10.0,65,0.00,,---,1.84,VWS V14.01,2013-11-28 03:28:00,
2013-11-27 22:29:00,38.3,27.6,29.39,WNW,285,7.0,10.0,65,0.00,,---,1.84,VWS V14.01,2013-11-28 03:29:00,
2013-11-27 22:32:00,38.3,27.2,29.39,NNW,328,2.0,16.0,64,0.00,,---,1.84,VWS V14.01,2013-11-28 03:32:00,
2013-11-27 22:33:00,38.3,27.2,29.39,NW,305,5.0,16.0,64,0.00,,---,1.84,VWS V14.01,2013-11-28 03:33:00,
2013-11-27 22:34:00,38.3,27.2,29.39,West,275,7.0,16.0,64,0.00,,---,1.84,VWS V14.01,2013-11-28 03:34:00,
2013-11-27 22:37:00,38.3,27.2,29.39,WNW,291,6.0,16.0,64,0.00,,---,1.84,VWS V14.01,2013-11-28 03:37:00,
2013-11-27 22:38:00,38.3,27.2,29.39,West,278,5.0,16.0,64,0.00,,---,1.84,VWS V14.01,2013-11-28 03:38:00,
2013-11-27 22:40:00,38.2,27.1,29.39,WNW,292,5.0,16.0,64,0.00,,---,1.84,VWS V14.01,2013-11-28 03:40:00,
2013-11-27 22:42:00,38.2,27.1,29.39,WSW,248,6.0,16.0,64,0.00,,---,1.84,VWS V14.01,2013-11-28 03:42:00,
2013-11-27 22:43:00,38.2,26.7,29.39,West,265,6.0,16.0,63,0.00,,---,1.84,VWS V14.01,2013-11-28 03:43:00,
2013-11-27 22:44:00,38.2,26.7,29.40,WNW,282,6.0,16.0,63,0.00,,---,1.84,VWS V14.01,2013-11-28 03:44:00,
2013-11-27 22:45:00,38.2,26.7,29.40,WSW,251,6.0,6.0,63,0.00,,---,1.84,VWS V14.01,2013-11-28 03:45:00,
2013-11-27 22:47:00,38.2,27.1,29.40,West,265,7.0,7.0,64,0.00,,---,1.84,VWS V14.01,2013-11-28 03:47:00,
2013-11-27 22:48:00,38.2,26.7,29.40,WNW,301,3.0,7.0,63,0.00,,---,1.84,VWS V14.01,2013-11-28 03:48:00,
2013-11-27 22:49:00,38.2,26.7,29.40,WNW,291,6.0,7.0,63,0.00,,---,1.84,VWS V14.01,2013-11-28 03:49:00,
2013-11-27 22:50:00,38.2,26.7,29.40,NW,306,7.0,10.0,63,0.00,,---,1.84,VWS V14.01,2013-11-28 03:50:00,
2013-11-27 22:52:00,38.2,26.3,29.40,West,277,8.0,11.0,62,0.00,,---,1.84,VWS V14.01,2013-11-28 03:52:00,
2013-11-27 22:53:00,38.2,26.3,29.40,West,274,8.0,11.0,62,0.00,,---,1.84,VWS V14.01,2013-11-28 03:53:00,
2013-11-27 22:54:00,38.2,26.0,29.40,West,281,10.0,12.0,61,0.00,,---,1.84,VWS V14.01,2013-11-28 03:54:00,
2013-11-27 22:55:00,38.2,26.0,29.40,West,271,6.0,12.0,61,0.00,,---,1.84,VWS V14.01,2013-11-28 03:55:00,
2013-11-27 22:57:00,38.2,26.0,29.40,West,261,11.0,12.0,61,0.00,,---,1.84,VWS V14.01,2013-11-28 03:57:00,
2013-11-27 22:58:00,38.2,26.0,29.40,West,271,6.0,12.0,61,0.00,,---,1.84,VWS V14.01,2013-11-28 03:58:00,
2013-11-27 22:59:00,38.2,25.5,29.42,WNW,288,10.0,12.0,60,0.00,,---,1.84,VWS V14.01,2013-11-28 03:59:00,
2013-11-27 23:01:00,38.2,25.5,29.42,WNW,288,7.0,13.0,60,0.00,,---,1.84,VWS V14.01,2013-11-28 04:01:00,
2013-11-27 23:02:00,38.2,25.5,29.42,West,277,8.0,13.0,60,0.00,,---,1.84,VWS V14.01,2013-11-28 04:02:00,
2013-11-27 23:03:00,38.2,25.5,29.42,WNW,285,11.0,13.0,60,0.00,,---,1.84,VWS V14.01,2013-11-28 04:03:00,
2013-11-27 23:04:00,38.2,25.5,29.42,WNW,284,2.0,13.0,60,0.00,,---,1.84,VWS V14.01,2013-11-28 04:04:00,
2013-11-27 23:05:00,38.2,25.5,29.42,NW,320,7.0,13.0,60,0.00,,---,1.84,VWS V14.01,2013-11-28 04:05:00,
2013-11-27 23:06:00,38.2,25.5,29.42,WNW,291,3.0,13.0,60,0.00,,---,1.84,VWS V14.01,2013-11-28 04:06:00,
2013-11-27 23:08:00,38.2,25.1,29.42,West,274,8.0,13.0,59,0.00,,---,1.84,VWS V14.01,2013-11-28 04:08:00,
2013-11-27 23:09:00,38.2,25.1,29.42,WNW,298,7.0,14.0,59,0.00,,---,1.84,VWS V14.01,2013-11-28 04:09:00,
2013-11-27 23:10:00,38.2,24.7,29.42,WNW,288,7.0,14.0,58,0.00,,---,1.84,VWS V14.01,2013-11-28 04:10:00,
2013-11-27 23:11:00,38.2,24.3,29.42,WNW,299,7.0,14.0,57,0.00,,---,1.84,VWS V14.01,2013-11-28 04:11:00,
2013-11-27 23:13:00,38.3,24.8,29.42,WNW,282,6.0,14.0,58,0.00,,---,1.84,VWS V14.01,2013-11-28 04:13:00,
2013-11-27 23:14:00,38.3,24.4,29.45,WSW,257,11.0,14.0,57,0.00,,---,1.84,VWS V14.01,2013-11-28 04:14:00,
2013-11-27 23:15:00,38.3,24.0,29.45,WNW,291,6.0,6.0,56,0.00,,---,1.84,VWS V14.01,2013-11-28 04:15:00,
2013-11-27 23:16:00,38.3,24.0,29.45,WNW,284,6.0,12.0,56,0.00,,---,1.84,VWS V14.01,2013-11-28 04:16:00,
2013-11-27 23:18:00,38.3,24.0,29.45,WNW,292,14.0,14.0,56,0.00,,---,1.84,VWS V14.01,2013-11-28 04:18:00,
2013-11-27 23:19:00,38.3,23.6,29.45,WSW,251,11.0,14.0,55,0.00,,---,1.84,VWS V14.01,2013-11-28 04:19:00,
2013-11-27 23:20:00,38.3,23.6,29.45,WSW,254,8.0,14.0,55,0.00,,---,1.84,VWS V14.01,2013-11-28 04:20:00,
2013-11-27 23:22:00,38.3,23.6,29.45,West,277,7.0,14.0,55,0.00,,---,1.84,VWS V14.01,2013-11-28 04:22:00,
2013-11-27 23:23:00,38.3,23.6,29.45,WNW,296,10.0,14.0,55,0.00,,---,1.84,VWS V14.01,2013-11-28 04:23:00,
2013-11-27 23:24:00,38.3,23.6,29.45,WSW,244,6.0,14.0,55,0.00,,---,1.84,VWS V14.01,2013-11-28 04:24:00,
2013-11-27 23:25:00,38.3,23.6,29.45,WSW,251,7.0,14.0,55,0.00,,---,1.84,VWS V14.01,2013-11-28 04:25:00,
2013-11-27 23:26:00,38.3,23.6,29.45,West,268,13.0,14.0,55,0.00,,---,1.84,VWS V14.01,2013-11-28 04:26:00,
2013-11-27 23:27:00,38.3,23.6,29.45,WNW,282,7.0,14.0,55,0.00,,---,1.84,VWS V14.01,2013-11-28 04:27:00,
2013-11-27 23:28:00,38.2,23.9,29.45,WNW,287,10.0,14.0,56,0.00,,---,1.84,VWS V14.01,2013-11-28 04:28:00,
2013-11-27 23:30:00,38.2,23.5,29.47,WNW,301,8.0,11.0,55,0.00,,---,1.84,VWS V14.01,2013-11-28 04:30:00,
2013-11-27 23:31:00,38.3,22.7,29.47,NW,325,10.0,13.0,53,0.00,,---,1.84,VWS V14.01,2013-11-28 04:31:00,
2013-11-27 23:32:00,38.3,22.7,29.47,WNW,291,11.0,13.0,53,0.00,,---,1.84,VWS V14.01,2013-11-28 04:32:00,
2013-11-27 23:33:00,38.3,22.2,29.47,West,277,8.0,17.0,52,0.00,,---,1.84,VWS V14.01,2013-11-28 04:33:00,
2013-11-27 23:35:00,38.3,22.2,29.47,WNW,301,14.0,17.0,52,0.00,,---,1.84,VWS V14.01,2013-11-28 04:35:00,
2013-11-27 23:36:00,38.3,22.2,29.47,West,281,17.0,17.0,52,0.00,,---,1.84,VWS V14.01,2013-11-28 04:36:00,
2013-11-27 23:37:00,38.3,22.2,29.47,West,281,17.0,17.0,52,0.00,,---,1.84,VWS V14.01,2013-11-28 04:37:00,
2013-11-27 23:38:00,38.5,22.0,29.47,NW,325,7.0,17.0,51,0.00,,---,1.84,VWS V14.01,2013-11-28 04:38:00,
2013-11-27 23:40:00,38.5,22.0,29.47,NW,318,8.0,17.0,51,0.00,,---,1.84,VWS V14.01,2013-11-28 04:40:00,
2013-11-27 23:42:00,38.5,22.0,29.47,WNW,299,6.0,18.0,51,0.00,,---,1.84,VWS V14.01,2013-11-28 04:42:00,
2013-11-27 23:43:00,38.5,22.4,29.47,WNW,282,5.0,18.0,52,0.00,,---,1.84,VWS V14.01,2013-11-28 04:43:00,
2013-11-27 23:44:00,38.3,22.2,29.48,WNW,289,5.0,18.0,52,0.00,,---,1.84,VWS V14.01,2013-11-28 04:44:00,
2013-11-27 23:45:00,38.3,21.8,29.48,NW,304,10.0,16.0,51,0.00,,---,1.84,VWS V14.01,2013-11-28 04:45:00,
2013-11-27 23:46:00,38.3,21.8,29.48,West,277,12.0,16.0,51,0.00,,---,1.84,VWS V14.01,2013-11-28 04:46:00,
2013-11-27 23:47:00,38.5,22.0,29.48,WNW,284,11.0,17.0,51,0.00,,---,1.84,VWS V14.01,2013-11-28 04:47:00,
2013-11-27 23:49:00,38.5,22.0,29.48,WNW,282,9.0,17.0,51,0.00,,---,1.84,VWS V14.01,2013-11-28 04:49:00,
2013-11-27 23:51:00,38.5,22.0,29.48,West,280,8.0,17.0,51,0.00,,---,1.84,VWS V14.01,2013-11-28 04:51:00,
2013-11-27 23:52:00,38.5,22.0,29.48,West,261,7.0,17.0,51,0.00,,---,1.84,VWS V14.01,2013-11-28 04:52:00,
2013-11-27 23:53:00,38.5,22.0,29.48,WNW,294,20.0,20.0,51,0.00,,---,1.84,VWS V14.01,2013-11-28 04:53:00,
2013-11-27 23:54:00,38.5,22.0,29.48,WNW,292,11.0,20.0,51,0.00,,---,1.84,VWS V14.01,2013-11-28 04:54:00,
2013-11-27 23:56:00,38.5,22.0,29.48,NW,323,3.0,20.0,51,0.00,,---,1.84,VWS V14.01,2013-11-28 04:56:00,
2013-11-27 23:57:00,38.3,22.2,29.48,West,265,3.0,20.0,52,0.00,,---,1.84,VWS V14.01,2013-11-28 04:57:00,
2013-11-27 23:58:00,38.3,22.2,29.48,West,280,4.0,20.0,52,0.00,,---,1.84,VWS V14.01,2013-11-28 04:58:00,
2013-11-27 23:59:00,38.3,22.2,29.49,WNW,296,8.0,20.0,52,0.00,,---,1.84,VWS V14.01,2013-11-28 04:59:00,